Time,TemperatureF,DewpointF,PressureIn,WindDirection,WindDirectionDegrees,WindSpeedMPH,WindSpeedGustMPH,Humidity,HourlyPrecipIn,Conditions,Clouds,dailyrainin,SoftwareType,DateUTC
2013-02-13 07:25:00,55.8,29.2,29.44,SE,135,4.3,9.0,36,0.00,,---,0.00,VWS V14.01,2013-02-13 05:25:00,
2013-02-13 07:26:00,55.8,29.2,29.44,SE,135,5.8,5.8,36,0.00,,---,0.00,VWS V14.01,2013-02-13 05:26:00,
2013-02-13 07:27:00,55.8,29.2,29.44,SE,135,11.0,11.0,36,0.00,,---,0.00,VWS V14.01,2013-02-13 05:27:00,
2013-02-13 07:28:00,55.9,29.4,29.44,SE,135,12.3,12.3,36,0.00,,---,0.00,VWS V14.01,2013-02-13 05:28:00,
2013-02-13 07:29:00,55.9,30.1,29.44,SE,135,6.5,12.3,37,0.00,,---,0.00,VWS V14.01,2013-02-13 05:29:00,
2013-02-13 07:30:00,55.9,30.1,29.44,SE,135,5.6,6.5,37,0.00,,---,0.00,VWS V14.01,2013-02-13 05:30:00,
2013-02-13 07:31:00,55.9,30.1,29.44,SSE,158,6.0,6.0,37,0.00,,---,0.00,VWS V14.01,2013-02-13 05:31:00,
2013-02-13 07:32:00,55.9,30.1,29.44,SE,135,3.6,6.0,37,0.00,,---,0.00,VWS V14.01,2013-02-13 05:32:00,
2013-02-13 07:33:00,55.9,30.1,29.44,South,180,5.4,5.4,37,0.00,,---,0.00,VWS V14.01,2013-02-13 05:33:00,
2013-02-13 07:34:00,55.9,30.1,29.44,South,180,11.9,11.9,37,0.00,,---,0.00,VWS V14.01,2013-02-13 05:34:00,
2013-02-13 07:35:00,55.9,30.1,29.44,ESE,112,5.4,11.9,37,0.00,,---,0.00,VWS V14.01,2013-02-13 05:35:00,
2013-02-13 07:36:00,55.9,30.1,29.44,SSW,202,2.9,5.4,37,0.00,,---,0.00,VWS V14.01,2013-02-13 05:36:00,
2013-02-13 07:37:00,55.9,30.1,29.44,SE,135,5.4,5.4,37,0.00,,---,0.00,VWS V14.01,2013-02-13 05:37:00,
2013-02-13 07:38:00,55.9,30.1,29.44,SSE,158,3.6,5.4,37,0.00,,---,0.00,VWS V14.01,2013-02-13 05:38:00,
2013-02-13 07:39:00,55.9,30.1,29.44,ESE,112,3.8,3.8,37,0.00,,---,0.00,VWS V14.01,2013-02-13 05:39:00,
2013-02-13 07:40:00,55.9,30.1,29.44,SSE,158,8.1,8.1,37,0.00,,---,0.00,VWS V14.01,2013-02-13 05:40:00,
2013-02-13 07:41:00,55.9,30.1,29.44,SSE,158,3.4,8.1,37,0.00,,---,0.00,VWS V14.01,2013-02-13 05:41:00,
2013-02-13 07:42:00,55.9,30.1,29.44,SSE,158,12.1,12.1,37,0.00,,---,0.00,VWS V14.01,2013-02-13 05:42:00,
2013-02-13 07:43:00,55.9,30.1,29.44,South,180,9.8,12.1,37,0.00,,---,0.00,VWS V14.01,2013-02-13 05:43:00,
2013-02-13 07:44:00,55.9,30.1,29.44,SE,135,9.8,9.8,37,0.00,,---,0.00,VWS V14.01,2013-02-13 05:44:00,
2013-02-13 07:45:00,55.9,30.7,29.44,SSE,158,5.8,9.8,38,0.00,,---,0.00,VWS V14.01,2013-02-13 05:45:00,
2013-02-13 07:46:00,55.9,30.7,29.44,SSE,158,2.0,5.8,38,0.00,,---,0.00,VWS V14.01,2013-02-13 05:46:00,
2013-02-13 07:47:00,55.9,30.7,29.44,SSE,158,6.3,6.3,38,0.00,,---,0.00,VWS V14.01,2013-02-13 05:47:00,
2013-02-13 07:48:00,55.9,30.7,29.44,SSE,158,1.6,6.3,38,0.00,,---,0.00,VWS V14.01,2013-02-13 05:48:00,
2013-02-13 07:49:00,55.9,30.7,29.44,East,90,14.3,14.3,38,0.00,,---,0.00,VWS V14.01,2013-02-13 05:49:00,
2013-02-13 07:50:00,55.9,30.7,29.44,South,180,5.4,14.3,38,0.00,,---,0.00,VWS V14.01,2013-02-13 05:50:00,
2013-02-13 07:51:00,55.9,30.7,29.44,ESE,112,8.7,8.7,38,0.00,,---,0.00,VWS V14.01,2013-02-13 05:51:00,
2013-02-13 07:52:00,56.1,30.9,29.44,South,180,8.5,8.7,38,0.00,,---,0.00,VWS V14.01,2013-02-13 05:52:00,
2013-02-13 07:53:00,56.1,30.9,29.44,SSE,158,7.6,8.5,38,0.00,,---,0.00,VWS V14.01,2013-02-13 05:53:00,
2013-02-13 07:54:00,56.1,30.9,29.44,SSE,158,5.6,7.6,38,0.00,,---,0.00,VWS V14.01,2013-02-13 05:54:00,
2013-02-13 07:55:00,56.1,30.9,29.44,ESE,112,3.4,5.6,38,0.00,,---,0.00,VWS V14.01,2013-02-13 05:55:00,
2013-02-13 07:56:00,56.1,30.9,29.44,SE,135,12.5,12.5,38,0.00,,---,0.00,VWS V14.01,2013-02-13 05:56:00,
2013-02-13 07:57:00,56.1,30.9,29.44,ESE,112,3.1,12.5,38,0.00,,---,0.00,VWS V14.01,2013-02-13 05:57:00,
2013-02-13 07:58:00,56.1,30.9,29.44,SSW,202,6.0,6.0,38,0.00,,---,0.00,VWS V14.01,2013-02-13 05:58:00,
2013-02-13 07:59:00,56.1,30.9,29.44,East,90,3.8,6.0,38,0.00,,---,0.00,VWS V14.01,2013-02-13 05:59:00,
2013-02-13 08:00:00,56.1,30.9,29.44,ESE,112,2.7,3.8,38,0.00,,---,0.00,VWS V14.01,2013-02-13 06:00:00,
2013-02-13 08:01:00,56.1,30.9,29.44,SSE,158,6.5,6.5,38,0.00,,---,0.00,VWS V14.01,2013-02-13 06:01:00,
2013-02-13 08:02:00,56.1,30.9,29.44,SE,135,2.0,6.5,38,0.00,,---,0.00,VWS V14.01,2013-02-13 06:02:00,
2013-02-13 08:04:00,56.1,30.2,29.44,South,180,5.4,5.4,37,0.00,,---,0.00,VWS V14.01,2013-02-13 06:04:00,
2013-02-13 08:05:00,56.3,30.4,29.44,SSE,158,8.1,8.1,37,0.00,,---,0.00,VWS V14.01,2013-02-13 06:05:00,
2013-02-13 08:06:00,56.3,30.4,29.44,SSE,158,10.7,10.7,37,0.00,,---,0.00,VWS V14.01,2013-02-13 06:06:00,
2013-02-13 08:07:00,56.3,30.4,29.44,SE,135,7.4,10.7,37,0.00,,---,0.00,VWS V14.01,2013-02-13 06:07:00,
2013-02-13 08:08:00,56.3,30.4,29.44,SSE,158,6.5,7.4,37,0.00,,---,0.00,VWS V14.01,2013-02-13 06:08:00,
2013-02-13 08:09:00,56.3,30.4,29.44,SW,225,7.4,7.4,37,0.00,,---,0.00,VWS V14.01,2013-02-13 06:09:00,
2013-02-13 08:10:00,56.3,30.4,29.44,SSE,158,5.4,7.4,37,0.00,,---,0.00,VWS V14.01,2013-02-13 06:10:00,
2013-02-13 08:11:00,56.3,30.4,29.44,ESE,112,5.4,5.4,37,0.00,,---,0.00,VWS V14.01,2013-02-13 06:11:00,
2013-02-13 08:12:00,56.3,30.4,29.44,SSE,158,5.6,5.6,37,0.00,,---,0.00,VWS V14.01,2013-02-13 06:12:00,
2013-02-13 08:13:00,56.5,30.5,29.44,East,90,12.5,12.5,37,0.00,,---,0.00,VWS V14.01,2013-02-13 06:13:00,
2013-02-13 08:14:00,56.5,30.5,29.44,ESE,112,6.3,12.5,37,0.00,,---,0.00,VWS V14.01,2013-02-13 06:14:00,
2013-02-13 08:15:00,56.5,30.5,29.44,SSE,158,10.5,10.5,37,0.00,,---,0.00,VWS V14.01,2013-02-13 06:15:00,
2013-02-13 08:16:00,56.5,30.5,29.44,SSE,158,12.1,12.1,37,0.00,,---,0.00,VWS V14.01,2013-02-13 06:16:00,
2013-02-13 08:17:00,56.5,30.5,29.44,SSE,158,3.6,12.1,37,0.00,,---,0.00,VWS V14.01,2013-02-13 06:17:00,
2013-02-13 08:18:00,56.5,30.5,29.44,SE,135,4.0,4.0,37,0.00,,---,0.00,VWS V14.01,2013-02-13 06:18:00,
2013-02-13 08:19:00,56.5,30.5,29.44,SE,135,4.9,4.9,37,0.00,,---,0.00,VWS V14.01,2013-02-13 06:19:00,
2013-02-13 08:20:00,56.5,30.5,29.44,ESE,112,4.9,4.9,37,0.00,,---,0.00,VWS V14.01,2013-02-13 06:20:00,
2013-02-13 08:21:00,56.5,30.5,29.44,SSE,158,6.5,6.5,37,0.00,,---,0.00,VWS V14.01,2013-02-13 06:21:00,
2013-02-13 08:22:00,56.5,30.5,29.44,South,180,12.3,12.3,37,0.00,,---,0.00,VWS V14.01,2013-02-13 06:22:00,
2013-02-13 08:23:00,56.5,30.5,29.44,SE,135,8.1,12.3,37,0.00,,---,0.00,VWS V14.01,2013-02-13 06:23:00,
2013-02-13 08:24:00,56.5,30.5,29.44,SSW,202,6.3,8.1,37,0.00,,---,0.00,VWS V14.01,2013-02-13 06:24:00,
2013-02-13 08:25:00,56.5,30.5,29.44,ESE,112,7.6,7.6,37,0.00,,---,0.00,VWS V14.01,2013-02-13 06:25:00,
2013-02-13 08:26:00,56.5,30.5,29.44,ESE,112,4.3,7.6,37,0.00,,---,0.00,VWS V14.01,2013-02-13 06:26:00,
2013-02-13 08:27:00,56.5,30.5,29.44,East,90,7.8,7.8,37,0.00,,---,0.00,VWS V14.01,2013-02-13 06:27:00,
2013-02-13 08:28:00,56.5,30.5,29.44,ENE,68,6.0,7.8,37,0.00,,---,0.00,VWS V14.01,2013-02-13 06:28:00,
2013-02-13 08:29:00,56.7,30.0,29.44,SE,135,3.4,6.0,36,0.00,,---,0.00,VWS V14.01,2013-02-13 06:29:00,
2013-02-13 08:30:00,56.7,30.0,29.44,East,90,22.2,22.2,36,0.00,,---,0.00,VWS V14.01,2013-02-13 06:30:00,
2013-02-13 08:31:00,56.7,30.0,29.44,ESE,112,12.1,22.2,36,0.00,,---,0.00,VWS V14.01,2013-02-13 06:31:00,
2013-02-13 08:32:00,56.7,30.0,29.44,SSE,158,8.1,12.1,36,0.00,,---,0.00,VWS V14.01,2013-02-13 06:32:00,
2013-02-13 08:33:00,56.7,30.0,29.44,SSE,158,3.6,8.1,36,0.00,,---,0.00,VWS V14.01,2013-02-13 06:33:00,
2013-02-13 08:34:00,56.7,30.0,29.44,South,180,7.6,7.6,36,0.00,,---,0.00,VWS V14.01,2013-02-13 06:34:00,
2013-02-13 08:35:00,56.7,30.0,29.44,South,180,13.9,13.9,36,0.00,,---,0.00,VWS V14.01,2013-02-13 06:35:00,
2013-02-13 08:36:00,56.8,30.2,29.44,SE,135,5.6,13.9,36,0.00,,---,0.00,VWS V14.01,2013-02-13 06:36:00,
2013-02-13 08:37:00,56.8,30.2,29.44,SE,135,15.2,15.2,36,0.00,,---,0.00,VWS V14.01,2013-02-13 06:37:00,
2013-02-13 08:38:00,56.8,30.2,29.44,South,180,12.1,15.2,36,0.00,,---,0.00,VWS V14.01,2013-02-13 06:38:00,
2013-02-13 08:39:00,56.8,30.2,29.44,South,180,6.5,12.1,36,0.00,,---,0.00,VWS V14.01,2013-02-13 06:39:00,
2013-02-13 08:40:00,56.8,30.2,29.44,SE,135,6.5,6.5,36,0.00,,---,0.00,VWS V14.01,2013-02-13 06:40:00,
2013-02-13 08:41:00,56.8,30.2,29.44,SSE,158,6.0,6.5,36,0.00,,---,0.00,VWS V14.01,2013-02-13 06:41:00,
2013-02-13 08:42:00,56.8,30.2,29.44,SSE,158,10.1,10.1,36,0.00,,---,0.00,VWS V14.01,2013-02-13 06:42:00,
2013-02-13 08:43:00,56.8,30.2,29.44,East,90,5.6,10.1,36,0.00,,---,0.00,VWS V14.01,2013-02-13 06:43:00,
2013-02-13 08:44:00,56.8,30.2,29.44,ENE,68,3.4,5.6,36,0.00,,---,0.00,VWS V14.01,2013-02-13 06:44:00,
2013-02-13 08:45:00,56.8,30.2,29.44,ESE,112,16.3,16.3,36,0.00,,---,0.00,VWS V14.01,2013-02-13 06:45:00,
2013-02-13 08:46:00,56.8,30.9,29.44,ESE,112,12.5,16.3,37,0.00,,---,0.00,VWS V14.01,2013-02-13 06:46:00,
2013-02-13 08:47:00,56.8,30.9,29.44,SSE,158,5.6,12.5,37,0.00,,---,0.00,VWS V14.01,2013-02-13 06:47:00,
2013-02-13 08:48:00,56.8,30.9,29.44,ESE,112,6.0,6.0,37,0.00,,---,0.00,VWS V14.01,2013-02-13 06:48:00,
2013-02-13 08:49:00,56.8,30.9,29.44,SSE,158,9.2,9.2,37,0.00,,---,0.00,VWS V14.01,2013-02-13 06:49:00,
2013-02-13 08:50:00,56.8,30.9,29.44,SSE,158,7.6,9.2,37,0.00,,---,0.00,VWS V14.01,2013-02-13 06:50:00,
2013-02-13 08:51:00,56.8,30.9,29.44,SSE,158,6.0,7.6,37,0.00,,---,0.00,VWS V14.01,2013-02-13 06:51:00,
2013-02-13 08:52:00,56.8,30.9,29.44,SSW,202,5.6,6.0,37,0.00,,---,0.00,VWS V14.01,2013-02-13 06:52:00,
2013-02-13 08:53:00,56.8,30.9,29.47,ESE,112,7.2,7.2,37,0.00,,---,0.00,VWS V14.01,2013-02-13 06:53:00,
2013-02-13 08:54:00,56.8,31.5,29.47,SE,135,6.3,7.2,38,0.00,,---,0.00,VWS V14.01,2013-02-13 06:54:00,
2013-02-13 08:55:00,56.8,31.5,29.47,SSE,158,4.3,6.3,38,0.00,,---,0.00,VWS V14.01,2013-02-13 06:55:00,
2013-02-13 08:56:00,56.8,31.5,29.47,SE,135,8.7,8.7,38,0.00,,---,0.00,VWS V14.01,2013-02-13 06:56:00,
2013-02-13 08:57:00,56.8,31.5,29.47,SSE,158,7.6,8.7,38,0.00,,---,0.00,VWS V14.01,2013-02-13 06:57:00,
2013-02-13 08:58:00,56.8,31.5,29.47,East,90,4.0,7.6,38,0.00,,---,0.00,VWS V14.01,2013-02-13 06:58:00,
2013-02-13 08:59:00,56.8,31.5,29.47,ESE,112,11.0,11.0,38,0.00,,---,0.00,VWS V14.01,2013-02-13 06:59:00,
2013-02-13 09:00:00,56.8,31.5,29.47,ESE,112,8.7,11.0,38,0.00,,---,0.00,VWS V14.01,2013-02-13 07:00:00,
2013-02-13 09:01:00,56.8,31.5,29.47,SSE,158,7.6,8.7,38,0.00,,---,0.00,VWS V14.01,2013-02-13 07:01:00,
2013-02-13 09:02:00,56.8,31.5,29.47,ESE,112,6.3,7.6,38,0.00,,---,0.00,VWS V14.01,2013-02-13 07:02:00,
2013-02-13 09:03:00,56.8,31.5,29.47,South,180,14.5,14.5,38,0.00,,---,0.00,VWS V14.01,2013-02-13 07:03:00,
2013-02-13 09:04:00,56.8,30.9,29.47,South,180,17.7,17.7,37,0.00,,---,0.00,VWS V14.01,2013-02-13 07:04:00,
2013-02-13 09:05:00,57.0,31.0,29.47,SSW,202,12.1,17.7,37,0.00,,---,0.00,VWS V14.01,2013-02-13 07:05:00,
2013-02-13 09:06:00,57.0,31.0,29.47,ESE,112,5.6,12.1,37,0.00,,---,0.00,VWS V14.01,2013-02-13 07:06:00,
2013-02-13 09:07:00,57.0,31.0,29.47,SE,135,10.7,10.7,37,0.00,,---,0.00,VWS V14.01,2013-02-13 07:07:00,
2013-02-13 09:08:00,57.0,31.0,29.44,SSE,158,13.2,13.2,37,0.00,,---,0.00,VWS V14.01,2013-02-13 07:08:00,
2013-02-13 09:09:00,57.0,31.0,29.44,ESE,112,5.8,13.2,37,0.00,,---,0.00,VWS V14.01,2013-02-13 07:09:00,
2013-02-13 09:10:00,57.2,31.2,29.44,SSE,158,6.3,6.3,37,0.00,,---,0.00,VWS V14.01,2013-02-13 07:10:00,
2013-02-13 09:11:00,57.2,31.2,29.44,ESE,112,10.3,10.3,37,0.00,,---,0.00,VWS V14.01,2013-02-13 07:11:00,
2013-02-13 09:12:00,57.2,31.2,29.44,SE,135,7.4,10.3,37,0.00,,---,0.00,VWS V14.01,2013-02-13 07:12:00,
2013-02-13 09:13:00,57.2,31.2,29.44,SE,135,10.5,10.5,37,0.00,,---,0.00,VWS V14.01,2013-02-13 07:13:00,
2013-02-13 09:14:00,57.2,31.2,29.44,SSE,158,10.5,10.5,37,0.00,,---,0.00,VWS V14.01,2013-02-13 07:14:00,
2013-02-13 09:15:00,57.2,31.2,29.44,SSE,158,10.1,10.5,37,0.00,,---,0.00,VWS V14.01,2013-02-13 07:15:00,
2013-02-13 09:16:00,57.2,31.8,29.44,SW,225,4.7,10.1,38,0.00,,---,0.00,VWS V14.01,2013-02-13 07:16:00,
2013-02-13 09:17:00,57.0,31.7,29.44,SSE,158,7.2,7.2,38,0.00,,---,0.00,VWS V14.01,2013-02-13 07:17:00,
2013-02-13 09:18:00,57.0,32.3,29.44,SE,135,3.8,7.2,39,0.00,,---,0.00,VWS V14.01,2013-02-13 07:18:00,
2013-02-13 09:19:00,57.0,32.3,29.44,SSE,158,6.3,6.3,39,0.00,,---,0.00,VWS V14.01,2013-02-13 07:19:00,
2013-02-13 09:20:00,56.8,32.8,29.44,SSE,158,5.4,6.3,40,0.00,,---,0.00,VWS V14.01,2013-02-13 07:20:00,
2013-02-13 09:21:00,56.8,32.8,29.44,SSE,158,10.3,10.3,40,0.00,,---,0.00,VWS V14.01,2013-02-13 07:21:00,
2013-02-13 09:22:00,56.7,32.6,29.44,SSE,158,4.3,10.3,40,0.00,,---,0.00,VWS V14.01,2013-02-13 07:22:00,
2013-02-13 09:23:00,56.7,33.2,29.47,East,90,2.9,4.3,41,0.00,,---,0.00,VWS V14.01,2013-02-13 07:23:00,
2013-02-13 09:24:00,56.7,33.2,29.47,ESE,112,6.3,6.3,41,0.00,,---,0.00,VWS V14.01,2013-02-13 07:24:00,
2013-02-13 09:25:00,56.7,33.8,29.47,ESE,112,6.0,6.3,42,0.00,,---,0.00,VWS V14.01,2013-02-13 07:25:00,
2013-02-13 09:26:00,56.5,33.7,29.47,SSE,158,3.6,6.0,42,0.00,,---,0.00,VWS V14.01,2013-02-13 07:26:00,
2013-02-13 09:27:00,56.5,33.7,29.47,SSE,158,12.5,12.5,42,0.00,,---,0.00,VWS V14.01,2013-02-13 07:27:00,
2013-02-13 09:28:00,56.5,33.7,29.47,South,180,5.4,12.5,42,0.00,,---,0.00,VWS V14.01,2013-02-13 07:28:00,
2013-02-13 09:29:00,56.3,34.1,29.47,ESE,112,8.5,8.5,43,0.00,,---,0.00,VWS V14.01,2013-02-13 07:29:00,
2013-02-13 09:30:00,56.1,34.5,29.47,East,90,7.4,8.5,44,0.00,,---,0.00,VWS V14.01,2013-02-13 07:30:00,
2013-02-13 09:31:00,55.9,34.9,29.47,SE,135,6.0,7.4,45,0.00,,---,0.00,VWS V14.01,2013-02-13 07:31:00,
2013-02-13 09:32:00,55.9,34.9,29.47,ENE,68,4.9,6.0,45,0.00,,---,0.00,VWS V14.01,2013-02-13 07:32:00,
2013-02-13 09:33:00,55.9,34.9,29.47,SE,135,10.1,10.1,45,0.00,,---,0.00,VWS V14.01,2013-02-13 07:33:00,
2013-02-13 09:34:00,55.9,34.9,29.47,ESE,112,8.7,10.1,45,0.00,,---,0.00,VWS V14.01,2013-02-13 07:34:00,
2013-02-13 09:35:00,55.9,34.9,29.47,East,90,3.1,8.7,45,0.00,,---,0.00,VWS V14.01,2013-02-13 07:35:00,
2013-02-13 09:36:00,55.9,34.9,29.47,SSE,158,13.2,13.2,45,0.00,,---,0.00,VWS V14.01,2013-02-13 07:36:00,
2013-02-13 09:37:00,56.1,35.1,29.47,SE,135,10.1,13.2,45,0.00,,---,0.00,VWS V14.01,2013-02-13 07:37:00,
2013-02-13 09:38:00,56.1,35.1,29.47,South,180,6.7,10.1,45,0.00,,---,0.00,VWS V14.01,2013-02-13 07:38:00,
2013-02-13 09:39:00,56.1,35.1,29.47,South,180,14.5,14.5,45,0.00,,---,0.00,VWS V14.01,2013-02-13 07:39:00,
2013-02-13 09:40:00,56.1,35.1,29.47,SSE,158,13.0,14.5,45,0.00,,---,0.00,VWS V14.01,2013-02-13 07:40:00,
2013-02-13 09:41:00,56.3,35.2,29.47,South,180,9.4,13.0,45,0.00,,---,0.00,VWS V14.01,2013-02-13 07:41:00,
2013-02-13 09:42:00,56.3,35.2,29.47,SSE,158,7.8,9.4,45,0.00,,---,0.00,VWS V14.01,2013-02-13 07:42:00,
2013-02-13 09:43:00,56.3,35.2,29.47,SSE,158,17.7,17.7,45,0.00,,---,0.00,VWS V14.01,2013-02-13 07:43:00,
2013-02-13 09:44:00,56.3,35.2,29.47,SSW,202,9.0,17.7,45,0.00,,---,0.00,VWS V14.01,2013-02-13 07:44:00,
2013-02-13 09:45:00,56.5,35.4,29.47,SSE,158,10.1,10.1,45,0.00,,---,0.00,VWS V14.01,2013-02-13 07:45:00,
2013-02-13 09:46:00,56.5,35.4,29.47,SSE,158,7.4,10.1,45,0.00,,---,0.00,VWS V14.01,2013-02-13 07:46:00,
2013-02-13 09:47:00,56.5,35.4,29.47,SE,135,10.1,10.1,45,0.00,,---,0.00,VWS V14.01,2013-02-13 07:47:00,
2013-02-13 09:48:00,56.5,35.4,29.47,SE,135,4.3,10.1,45,0.00,,---,0.00,VWS V14.01,2013-02-13 07:48:00,
2013-02-13 09:49:00,56.7,35.6,29.47,SE,135,8.1,8.1,45,0.00,,---,0.00,VWS V14.01,2013-02-13 07:49:00,
2013-02-13 09:50:00,56.7,35.6,29.47,ESE,112,2.0,8.1,45,0.00,,---,0.00,VWS V14.01,2013-02-13 07:50:00,
2013-02-13 09:51:00,56.7,35.6,29.47,South,180,5.8,5.8,45,0.00,,---,0.00,VWS V14.01,2013-02-13 07:51:00,
2013-02-13 09:52:00,56.7,35.6,29.47,SSE,158,10.3,10.3,45,0.00,,---,0.00,VWS V14.01,2013-02-13 07:52:00,
2013-02-13 09:53:00,56.7,35.6,29.47,SSW,202,7.4,10.3,45,0.00,,---,0.00,VWS V14.01,2013-02-13 07:53:00,
2013-02-13 09:54:00,56.7,35.6,29.47,ENE,68,4.7,7.4,45,0.00,,---,0.00,VWS V14.01,2013-02-13 07:54:00,
2013-02-13 09:55:00,56.7,35.0,29.47,SE,135,5.6,5.6,44,0.00,,---,0.00,VWS V14.01,2013-02-13 07:55:00,
2013-02-13 09:56:00,56.7,35.0,29.47,South,180,10.3,10.3,44,0.00,,---,0.00,VWS V14.01,2013-02-13 07:56:00,
2013-02-13 09:57:00,56.7,34.4,29.47,SSE,158,3.8,10.3,43,0.00,,---,0.00,VWS V14.01,2013-02-13 07:57:00,
2013-02-13 09:58:00,56.7,33.8,29.47,SE,135,4.7,4.7,42,0.00,,---,0.00,VWS V14.01,2013-02-13 07:58:00,
2013-02-13 09:59:00,56.7,33.8,29.47,SSE,158,7.4,7.4,42,0.00,,---,0.00,VWS V14.01,2013-02-13 07:59:00,
2013-02-13 10:00:00,56.8,34.0,29.47,SSE,158,7.8,7.8,42,0.00,,---,0.00,VWS V14.01,2013-02-13 08:00:00,
2013-02-13 10:01:00,56.8,34.0,29.47,SE,135,4.7,7.8,42,0.00,,---,0.00,VWS V14.01,2013-02-13 08:01:00,
2013-02-13 10:02:00,56.8,34.0,29.47,SSE,158,10.3,10.3,42,0.00,,---,0.00,VWS V14.01,2013-02-13 08:02:00,
2013-02-13 10:04:00,56.8,33.4,29.47,SSW,202,7.6,10.3,41,0.00,,---,0.00,VWS V14.01,2013-02-13 08:04:00,
2013-02-13 10:05:00,56.8,33.4,29.47,South,180,7.6,7.6,41,0.00,,---,0.00,VWS V14.01,2013-02-13 08:05:00,
2013-02-13 10:06:00,56.8,33.4,29.47,East,90,4.7,7.6,41,0.00,,---,0.00,VWS V14.01,2013-02-13 08:06:00,
2013-02-13 10:07:00,56.8,32.2,29.47,SW,225,7.8,7.8,39,0.00,,---,0.00,VWS V14.01,2013-02-13 08:07:00,
2013-02-13 10:08:00,56.8,32.2,29.47,SSE,158,10.5,10.5,39,0.00,,---,0.00,VWS V14.01,2013-02-13 08:08:00,
2013-02-13 10:09:00,56.8,32.2,29.47,NE,45,3.6,10.5,39,0.00,,---,0.00,VWS V14.01,2013-02-13 08:09:00,
2013-02-13 10:10:00,56.8,32.2,29.47,SE,135,5.4,5.4,39,0.00,,---,0.00,VWS V14.01,2013-02-13 08:10:00,
2013-02-13 10:11:00,56.8,31.5,29.47,SSE,158,9.8,9.8,38,0.00,,---,0.00,VWS V14.01,2013-02-13 08:11:00,
2013-02-13 10:12:00,56.8,31.5,29.47,SSE,158,5.6,9.8,38,0.00,,---,0.00,VWS V14.01,2013-02-13 08:12:00,
2013-02-13 10:13:00,56.8,31.5,29.47,SSE,158,6.5,6.5,38,0.00,,---,0.00,VWS V14.01,2013-02-13 08:13:00,
2013-02-13 10:14:00,56.8,31.5,29.47,SSE,158,9.4,9.4,38,0.00,,---,0.00,VWS V14.01,2013-02-13 08:14:00,
2013-02-13 10:15:00,56.8,31.5,29.47,SSE,158,3.6,9.4,38,0.00,,---,0.00,VWS V14.01,2013-02-13 08:15:00,
2013-02-13 10:16:00,56.8,31.5,29.47,SE,135,2.9,3.6,38,0.00,,---,0.00,VWS V14.01,2013-02-13 08:16:00,
2013-02-13 10:17:00,56.8,31.5,29.47,South,180,9.4,9.4,38,0.00,,---,0.00,VWS V14.01,2013-02-13 08:17:00,
2013-02-13 10:18:00,56.8,30.9,29.47,South,180,10.1,10.1,37,0.00,,---,0.00,VWS V14.01,2013-02-13 08:18:00,
2013-02-13 10:19:00,56.8,30.9,29.47,ESE,112,5.8,10.1,37,0.00,,---,0.00,VWS V14.01,2013-02-13 08:19:00,
2013-02-13 10:20:00,56.8,31.5,29.47,SE,135,3.1,5.8,38,0.00,,---,0.00,VWS V14.01,2013-02-13 08:20:00,
2013-02-13 10:21:00,56.8,31.5,29.47,ENE,68,5.6,5.6,38,0.00,,---,0.00,VWS V14.01,2013-02-13 08:21:00,
2013-02-13 10:22:00,56.8,30.9,29.47,South,180,2.9,5.6,37,0.00,,---,0.00,VWS V14.01,2013-02-13 08:22:00,
2013-02-13 10:24:00,56.8,30.9,29.47,ESE,112,8.7,8.7,37,0.00,,---,0.00,VWS V14.01,2013-02-13 08:24:00,
2013-02-13 10:25:00,56.8,30.2,29.47,South,180,3.6,8.7,36,0.00,,---,0.00,VWS V14.01,2013-02-13 08:25:00,
2013-02-13 10:26:00,56.8,30.2,29.47,SSE,158,19.2,19.2,36,0.00,,---,0.00,VWS V14.01,2013-02-13 08:26:00,
2013-02-13 10:27:00,56.7,30.0,29.47,ESE,112,4.5,19.2,36,0.00,,---,0.00,VWS V14.01,2013-02-13 08:27:00,
2013-02-13 10:28:00,56.8,30.2,29.47,SSE,158,4.0,4.5,36,0.00,,---,0.00,VWS V14.01,2013-02-13 08:28:00,
2013-02-13 10:29:00,56.8,30.2,29.47,South,180,3.4,4.0,36,0.00,,---,0.00,VWS V14.01,2013-02-13 08:29:00,
2013-02-13 10:30:00,56.8,30.2,29.47,South,180,3.6,3.6,36,0.00,,---,0.00,VWS V14.01,2013-02-13 08:30:00,
2013-02-13 10:31:00,56.8,30.2,29.47,SE,135,2.9,3.6,36,0.00,,---,0.00,VWS V14.01,2013-02-13 08:31:00,
2013-02-13 10:32:00,56.8,30.2,29.47,South,180,4.0,4.0,36,0.00,,---,0.00,VWS V14.01,2013-02-13 08:32:00,
2013-02-13 10:33:00,57.0,30.4,29.47,South,180,5.8,5.8,36,0.00,,---,0.00,VWS V14.01,2013-02-13 08:33:00,
2013-02-13 10:34:00,57.0,30.4,29.47,SSE,158,11.9,11.9,36,0.00,,---,0.00,VWS V14.01,2013-02-13 08:34:00,
2013-02-13 10:35:00,57.2,30.5,29.47,SSW,202,11.0,11.9,36,0.00,,---,0.00,VWS V14.01,2013-02-13 08:35:00,
2013-02-13 10:36:00,57.2,30.5,29.47,South,180,4.9,11.0,36,0.00,,---,0.00,VWS V14.01,2013-02-13 08:36:00,
2013-02-13 10:37:00,57.2,30.5,29.47,SE,135,4.3,4.9,36,0.00,,---,0.00,VWS V14.01,2013-02-13 08:37:00,
2013-02-13 10:38:00,57.2,30.5,29.47,SE,135,4.9,4.9,36,0.00,,---,0.00,VWS V14.01,2013-02-13 08:38:00,
2013-02-13 10:39:00,57.2,30.5,29.47,SE,135,6.7,6.7,36,0.00,,---,0.00,VWS V14.01,2013-02-13 08:39:00,
2013-02-13 10:40:00,57.4,31.3,29.47,SSE,158,1.1,6.7,37,0.00,,---,0.00,VWS V14.01,2013-02-13 08:40:00,
2013-02-13 10:41:00,57.4,31.3,29.47,SSE,158,17.7,17.7,37,0.00,,---,0.00,VWS V14.01,2013-02-13 08:41:00,
2013-02-13 10:42:00,57.4,31.3,29.47,SSE,158,3.1,17.7,37,0.00,,---,0.00,VWS V14.01,2013-02-13 08:42:00,
2013-02-13 10:44:00,57.4,31.3,29.47,SSE,158,7.8,7.8,37,0.00,,---,0.00,VWS V14.01,2013-02-13 08:44:00,
2013-02-13 10:45:00,57.4,31.3,29.47,SSE,158,2.7,7.8,37,0.00,,---,0.00,VWS V14.01,2013-02-13 08:45:00,
2013-02-13 10:46:00,57.4,32.0,29.47,SSE,158,12.5,12.5,38,0.00,,---,0.00,VWS V14.01,2013-02-13 08:46:00,
2013-02-13 10:47:00,57.4,32.0,29.47,South,180,3.8,12.5,38,0.00,,---,0.00,VWS V14.01,2013-02-13 08:47:00,
2013-02-13 10:48:00,57.4,32.0,29.47,SE,135,2.9,3.8,38,0.00,,---,0.00,VWS V14.01,2013-02-13 08:48:00,
2013-02-13 10:49:00,57.6,32.2,29.47,SSE,158,6.5,6.5,38,0.00,,---,0.00,VWS V14.01,2013-02-13 08:49:00,
2013-02-13 10:50:00,57.6,32.2,29.47,SSE,158,6.5,6.5,38,0.00,,---,0.00,VWS V14.01,2013-02-13 08:50:00,
2013-02-13 10:51:00,57.6,32.2,29.47,SSE,158,5.6,6.5,38,0.00,,---,0.00,VWS V14.01,2013-02-13 08:51:00,
2013-02-13 10:52:00,57.6,32.2,29.47,ESE,112,3.6,5.6,38,0.00,,---,0.00,VWS V14.01,2013-02-13 08:52:00,
2013-02-13 10:53:00,57.7,32.3,29.47,South,180,11.0,11.0,38,0.00,,---,0.00,VWS V14.01,2013-02-13 08:53:00,
2013-02-13 10:54:00,57.7,32.3,29.47,ESE,112,13.9,13.9,38,0.00,,---,0.00,VWS V14.01,2013-02-13 08:54:00,
2013-02-13 10:55:00,57.9,32.5,29.47,ESE,112,3.6,13.9,38,0.00,,---,0.00,VWS V14.01,2013-02-13 08:55:00,
2013-02-13 10:56:00,57.9,32.5,29.47,SW,225,10.3,10.3,38,0.00,,---,0.00,VWS V14.01,2013-02-13 08:56:00,
2013-02-13 10:57:00,57.9,32.5,29.47,SSW,202,3.8,10.3,38,0.00,,---,0.00,VWS V14.01,2013-02-13 08:57:00,
2013-02-13 10:58:00,58.1,32.7,29.47,SSE,158,3.1,3.8,38,0.00,,---,0.00,VWS V14.01,2013-02-13 08:58:00,
2013-02-13 10:59:00,58.1,32.7,29.47,SE,135,7.2,7.2,38,0.00,,---,0.00,VWS V14.01,2013-02-13 08:59:00,
2013-02-13 11:00:00,58.1,32.7,29.47,ENE,68,2.5,7.2,38,0.00,,---,0.00,VWS V14.01,2013-02-13 09:00:00,
2013-02-13 11:01:00,58.1,32.7,29.47,SE,135,13.4,13.4,38,0.00,,---,0.00,VWS V14.01,2013-02-13 09:01:00,
2013-02-13 11:02:00,57.9,32.5,29.47,SSE,158,14.8,14.8,38,0.00,,---,0.00,VWS V14.01,2013-02-13 09:02:00,
2013-02-13 11:03:00,58.1,32.7,29.47,East,90,5.8,14.8,38,0.00,,---,0.00,VWS V14.01,2013-02-13 09:03:00,
2013-02-13 11:04:00,58.1,32.7,29.47,SSW,202,4.3,5.8,38,0.00,,---,0.00,VWS V14.01,2013-02-13 09:04:00,
2013-02-13 11:05:00,58.1,32.7,29.47,SSE,158,3.8,4.3,38,0.00,,---,0.00,VWS V14.01,2013-02-13 09:05:00,
2013-02-13 11:06:00,58.1,32.7,29.47,SSW,202,5.6,5.6,38,0.00,,---,0.00,VWS V14.01,2013-02-13 09:06:00,
2013-02-13 11:07:00,58.1,32.7,29.47,ESE,112,13.9,13.9,38,0.00,,---,0.00,VWS V14.01,2013-02-13 09:07:00,
2013-02-13 11:08:00,58.1,32.7,29.44,SSE,158,4.3,13.9,38,0.00,,---,0.00,VWS V14.01,2013-02-13 09:08:00,
2013-02-13 11:09:00,58.1,32.7,29.44,NNW,338,4.0,4.3,38,0.00,,---,0.00,VWS V14.01,2013-02-13 09:09:00,
2013-02-13 11:10:00,58.1,32.7,29.44,SSE,158,10.1,10.1,38,0.00,,---,0.00,VWS V14.01,2013-02-13 09:10:00,
2013-02-13 11:11:00,58.1,32.7,29.44,ESE,112,5.6,10.1,38,0.00,,---,0.00,VWS V14.01,2013-02-13 09:11:00,
2013-02-13 11:12:00,58.1,32.7,29.44,West,270,4.9,5.6,38,0.00,,---,0.00,VWS V14.01,2013-02-13 09:12:00,
2013-02-13 11:13:00,58.1,32.7,29.44,SE,135,6.3,6.3,38,0.00,,---,0.00,VWS V14.01,2013-02-13 09:13:00,
2013-02-13 11:14:00,58.1,32.7,29.44,SE,135,6.5,6.5,38,0.00,,---,0.00,VWS V14.01,2013-02-13 09:14:00,
2013-02-13 11:15:00,58.1,33.9,29.44,South,180,6.3,6.5,40,0.00,,---,0.00,VWS V14.01,2013-02-13 09:15:00,
2013-02-13 11:16:00,58.3,34.1,29.44,SSE,158,8.7,8.7,40,0.00,,---,0.00,VWS V14.01,2013-02-13 09:16:00,
2013-02-13 11:17:00,58.3,34.1,29.44,SSE,158,9.6,9.6,40,0.00,,---,0.00,VWS V14.01,2013-02-13 09:17:00,
2013-02-13 11:19:00,58.5,34.2,29.44,South,180,7.2,9.6,40,0.00,,---,0.00,VWS V14.01,2013-02-13 09:19:00,
2013-02-13 11:20:00,58.5,34.2,29.44,SSE,158,8.7,8.7,40,0.00,,---,0.00,VWS V14.01,2013-02-13 09:20:00,
2013-02-13 11:21:00,58.5,34.2,29.44,South,180,6.0,8.7,40,0.00,,---,0.00,VWS V14.01,2013-02-13 09:21:00,
2013-02-13 11:22:00,58.5,33.6,29.44,SSE,158,5.8,6.0,39,0.00,,---,0.00,VWS V14.01,2013-02-13 09:22:00,
2013-02-13 11:23:00,58.6,33.8,29.44,SSW,202,13.2,13.2,39,0.00,,---,0.00,VWS V14.01,2013-02-13 09:23:00,
2013-02-13 11:24:00,58.6,33.8,29.44,South,180,5.4,13.2,39,0.00,,---,0.00,VWS V14.01,2013-02-13 09:24:00,
2013-02-13 11:25:00,58.6,33.8,29.44,South,180,12.5,12.5,39,0.00,,---,0.00,VWS V14.01,2013-02-13 09:25:00,
2013-02-13 11:27:00,58.6,33.8,29.44,SSE,158,11.9,12.5,39,0.00,,---,0.00,VWS V14.01,2013-02-13 09:27:00,
2013-02-13 11:28:00,58.6,33.8,29.44,SE,135,8.7,11.9,39,0.00,,---,0.00,VWS V14.01,2013-02-13 09:28:00,
2013-02-13 11:29:00,58.5,33.6,29.44,ESE,112,7.6,8.7,39,0.00,,---,0.00,VWS V14.01,2013-02-13 09:29:00,
2013-02-13 11:30:00,58.6,33.8,29.44,SE,135,5.8,7.6,39,0.00,,---,0.00,VWS V14.01,2013-02-13 09:30:00,
2013-02-13 11:31:00,58.6,33.8,29.44,South,180,4.9,5.8,39,0.00,,---,0.00,VWS V14.01,2013-02-13 09:31:00,
2013-02-13 11:32:00,58.6,33.8,29.44,South,180,3.6,4.9,39,0.00,,---,0.00,VWS V14.01,2013-02-13 09:32:00,
2013-02-13 11:33:00,58.6,34.4,29.44,South,180,3.8,3.8,40,0.00,,---,0.00,VWS V14.01,2013-02-13 09:33:00,
2013-02-13 11:34:00,58.5,34.2,29.44,South,180,3.8,3.8,40,0.00,,---,0.00,VWS V14.01,2013-02-13 09:34:00,
2013-02-13 11:35:00,58.5,34.2,29.44,SE,135,8.5,8.5,40,0.00,,---,0.00,VWS V14.01,2013-02-13 09:35:00,
2013-02-13 11:36:00,58.5,34.2,29.44,ESE,112,4.5,8.5,40,0.00,,---,0.00,VWS V14.01,2013-02-13 09:36:00,
2013-02-13 11:37:00,58.1,34.5,29.44,ESE,112,4.3,4.5,41,0.00,,---,0.00,VWS V14.01,2013-02-13 09:37:00,
2013-02-13 11:38:00,58.1,34.5,29.47,SE,135,4.0,4.3,41,0.00,,---,0.00,VWS V14.01,2013-02-13 09:38:00,
2013-02-13 11:39:00,58.1,34.5,29.47,SSW,202,4.9,4.9,41,0.00,,---,0.00,VWS V14.01,2013-02-13 09:39:00,
2013-02-13 11:40:00,58.1,34.5,29.47,East,90,2.7,4.9,41,0.00,,---,0.00,VWS V14.01,2013-02-13 09:40:00,
2013-02-13 11:41:00,58.3,35.3,29.47,SSE,158,3.6,3.6,42,0.00,,---,0.00,VWS V14.01,2013-02-13 09:41:00,
2013-02-13 11:42:00,58.1,34.5,29.47,South,180,3.6,3.6,41,0.00,,---,0.00,VWS V14.01,2013-02-13 09:42:00,
2013-02-13 11:43:00,58.1,34.5,29.47,SSW,202,7.2,7.2,41,0.00,,---,0.00,VWS V14.01,2013-02-13 09:43:00,
2013-02-13 11:44:00,58.1,34.5,29.47,SE,135,4.0,7.2,41,0.00,,---,0.00,VWS V14.01,2013-02-13 09:44:00,
2013-02-13 11:45:00,58.1,34.5,29.47,SE,135,6.5,6.5,41,0.00,,---,0.00,VWS V14.01,2013-02-13 09:45:00,
2013-02-13 11:46:00,58.1,34.5,29.47,SW,225,5.8,6.5,41,0.00,,---,0.00,VWS V14.01,2013-02-13 09:46:00,
2013-02-13 11:47:00,58.1,34.5,29.47,NNW,338,2.9,5.8,41,0.00,,---,0.00,VWS V14.01,2013-02-13 09:47:00,
2013-02-13 11:48:00,58.1,35.2,29.47,North,0,3.6,3.6,42,0.00,,---,0.00,VWS V14.01,2013-02-13 09:48:00,
2013-02-13 11:49:00,57.7,34.8,29.47,NE,45,4.0,4.0,42,0.00,,---,0.00,VWS V14.01,2013-02-13 09:49:00,
2013-02-13 11:50:00,57.2,33.7,29.47,North,0,6.0,6.0,41,0.00,,---,0.00,VWS V14.01,2013-02-13 09:50:00,
2013-02-13 11:51:00,56.7,33.2,29.47,WNW,292,4.5,6.0,41,0.00,,---,0.00,VWS V14.01,2013-02-13 09:51:00,
2013-02-13 11:52:00,56.7,33.2,29.47,North,0,3.4,4.5,41,0.00,,---,0.00,VWS V14.01,2013-02-13 09:52:00,
2013-02-13 11:53:00,55.8,32.4,29.50,NE,45,3.1,3.4,41,0.00,,---,0.00,VWS V14.01,2013-02-13 09:53:00,
2013-02-13 11:54:00,54.7,34.3,29.50,NNE,22,4.3,4.3,46,0.00,,---,0.00,VWS V14.01,2013-02-13 09:54:00,
2013-02-13 11:55:00,54.0,33.7,29.50,NNE,22,2.0,4.3,46,0.04,,---,0.04,VWS V14.01,2013-02-13 09:55:00,
2013-02-13 11:56:00,53.4,33.7,29.50,NNW,338,2.5,2.5,47,0.04,,---,0.04,VWS V14.01,2013-02-13 09:56:00,
2013-02-13 11:57:00,52.9,33.7,29.50,NNE,22,3.1,3.1,48,0.08,,---,0.08,VWS V14.01,2013-02-13 09:57:00,
2013-02-13 11:58:00,52.7,33.6,29.50,ESE,112,1.6,3.1,48,0.08,,---,0.08,VWS V14.01,2013-02-13 09:58:00,
2013-02-13 11:59:00,52.2,33.1,29.50,SE,135,2.0,2.0,48,0.08,,---,0.08,VWS V14.01,2013-02-13 09:59:00,
2013-02-13 12:00:00,52.0,32.9,29.50,ESE,112,1.3,2.0,48,0.08,,---,0.08,VWS V14.01,2013-02-13 10:00:00,
2013-02-13 12:02:00,51.3,32.8,29.50,NNE,22,2.5,2.5,49,0.16,,---,0.16,VWS V14.01,2013-02-13 10:02:00,
2013-02-13 12:04:00,50.7,32.3,29.50,NNE,22,2.0,2.5,49,0.16,,---,0.16,VWS V14.01,2013-02-13 10:04:00,
2013-02-13 12:05:00,50.4,31.9,29.50,SE,135,2.7,2.7,49,0.16,,---,0.16,VWS V14.01,2013-02-13 10:05:00,
2013-02-13 12:06:00,50.2,32.3,29.50,ESE,112,2.5,2.7,50,0.16,,---,0.16,VWS V14.01,2013-02-13 10:06:00,
2013-02-13 12:07:00,50.2,32.3,29.50,ESE,112,3.4,3.4,50,0.16,,---,0.16,VWS V14.01,2013-02-13 10:07:00,
2013-02-13 12:08:00,50.0,32.6,29.53,ESE,112,2.0,3.4,51,0.20,,---,0.20,VWS V14.01,2013-02-13 10:08:00,
2013-02-13 12:09:00,49.8,33.9,29.53,SE,135,2.9,2.9,54,0.20,,---,0.20,VWS V14.01,2013-02-13 10:09:00,
2013-02-13 12:11:00,49.6,34.6,29.53,North,0,4.0,4.0,56,0.24,,---,0.24,VWS V14.01,2013-02-13 10:11:00,
2013-02-13 12:12:00,49.5,34.9,29.53,NNE,22,3.8,4.0,57,0.24,,---,0.24,VWS V14.01,2013-02-13 10:12:00,
2013-02-13 12:14:00,49.3,35.1,29.53,NNE,22,4.9,4.9,58,0.29,,---,0.29,VWS V14.01,2013-02-13 10:14:00,
2013-02-13 12:15:00,48.9,36.1,29.53,NNE,22,3.1,4.9,61,0.29,,---,0.29,VWS V14.01,2013-02-13 10:15:00,
2013-02-13 12:16:00,48.6,35.7,29.53,NNE,22,3.4,3.4,61,0.29,,---,0.29,VWS V14.01,2013-02-13 10:16:00,
2013-02-13 12:17:00,48.4,36.0,29.53,NNE,22,5.4,5.4,62,0.33,,---,0.33,VWS V14.01,2013-02-13 10:17:00,
2013-02-13 12:18:00,48.4,36.0,29.53,ESE,112,3.1,5.4,62,0.33,,---,0.33,VWS V14.01,2013-02-13 10:18:00,
2013-02-13 12:19:00,48.4,36.4,29.53,NE,45,4.3,4.3,63,0.37,,---,0.37,VWS V14.01,2013-02-13 10:19:00,
2013-02-13 12:20:00,48.2,36.2,29.53,ENE,68,1.3,4.3,63,0.37,,---,0.37,VWS V14.01,2013-02-13 10:20:00,
2013-02-13 12:21:00,48.2,36.2,29.53,ESE,112,2.0,2.0,63,0.37,,---,0.37,VWS V14.01,2013-02-13 10:21:00,
2013-02-13 12:22:00,48.2,36.6,29.53,NE,45,2.0,2.0,64,0.37,,---,0.37,VWS V14.01,2013-02-13 10:22:00,
2013-02-13 12:23:00,48.0,36.4,29.47,NNE,22,2.9,2.9,64,0.37,,---,0.37,VWS V14.01,2013-02-13 10:23:00,
2013-02-13 12:24:00,48.0,36.8,29.47,North,0,0.0,2.9,65,0.41,,---,0.41,VWS V14.01,2013-02-13 10:24:00,
2013-02-13 12:26:00,47.8,36.7,29.47,NNE,22,3.1,3.1,65,0.41,,---,0.41,VWS V14.01,2013-02-13 10:26:00,
2013-02-13 12:27:00,47.8,36.7,29.47,North,0,3.4,3.4,65,0.41,,---,0.41,VWS V14.01,2013-02-13 10:27:00,
2013-02-13 12:28:00,47.8,37.0,29.47,North,0,2.7,3.4,66,0.41,,---,0.41,VWS V14.01,2013-02-13 10:28:00,
2013-02-13 12:29:00,47.8,37.0,29.47,North,0,2.5,2.7,66,0.41,,---,0.41,VWS V14.01,2013-02-13 10:29:00,
2013-02-13 12:30:00,47.8,37.4,29.47,NNE,22,3.6,3.6,67,0.41,,---,0.41,VWS V14.01,2013-02-13 10:30:00,
2013-02-13 12:31:00,47.8,37.4,29.47,NNE,22,3.1,3.6,67,0.41,,---,0.41,VWS V14.01,2013-02-13 10:31:00,
2013-02-13 12:32:00,47.8,37.8,29.47,NNE,22,2.0,3.1,68,0.45,,---,0.45,VWS V14.01,2013-02-13 10:32:00,
2013-02-13 12:33:00,47.8,37.8,29.47,NNE,22,2.0,2.0,68,0.45,,---,0.45,VWS V14.01,2013-02-13 10:33:00,
2013-02-13 12:34:00,47.8,38.2,29.47,North,0,1.6,2.0,69,0.45,,---,0.45,VWS V14.01,2013-02-13 10:34:00,
2013-02-13 12:35:00,48.0,38.7,29.47,SE,135,3.1,3.1,70,0.45,,---,0.45,VWS V14.01,2013-02-13 10:35:00,
2013-02-13 12:36:00,47.8,38.5,29.47,ESE,112,2.2,3.1,70,0.49,,---,0.49,VWS V14.01,2013-02-13 10:36:00,
2013-02-13 12:37:00,47.8,38.5,29.47,ENE,68,2.7,2.7,70,0.49,,---,0.49,VWS V14.01,2013-02-13 10:37:00,
2013-02-13 12:38:00,48.0,39.1,29.47,NNE,22,2.0,2.7,71,0.49,,---,0.49,VWS V14.01,2013-02-13 10:38:00,
2013-02-13 12:39:00,48.2,39.2,29.47,North,0,3.1,3.1,71,0.54,,---,0.54,VWS V14.01,2013-02-13 10:39:00,
2013-02-13 12:40:00,48.0,39.4,29.47,NNE,22,3.1,3.1,72,0.54,,---,0.54,VWS V14.01,2013-02-13 10:40:00,
2013-02-13 12:41:00,48.0,39.4,29.47,NNE,22,2.2,3.1,72,0.54,,---,0.54,VWS V14.01,2013-02-13 10:41:00,
2013-02-13 12:42:00,48.2,39.6,29.47,ENE,68,3.4,3.4,72,0.54,,---,0.54,VWS V14.01,2013-02-13 10:42:00,
2013-02-13 12:45:00,48.2,39.6,29.47,North,0,3.4,3.4,72,0.54,,---,0.54,VWS V14.01,2013-02-13 10:45:00,
2013-02-13 12:46:00,48.2,40.0,29.47,NNE,22,2.7,3.4,73,0.54,,---,0.54,VWS V14.01,2013-02-13 10:46:00,
2013-02-13 12:47:00,48.0,39.8,29.47,NNE,22,2.0,2.7,73,0.54,,---,0.54,VWS V14.01,2013-02-13 10:47:00,
2013-02-13 12:48:00,48.2,40.0,29.47,North,0,3.6,3.6,73,0.54,,---,0.54,VWS V14.01,2013-02-13 10:48:00,
2013-02-13 12:49:00,48.2,40.0,29.47,North,0,3.4,3.6,73,0.54,,---,0.54,VWS V14.01,2013-02-13 10:49:00,
2013-02-13 12:51:00,48.2,40.0,29.47,NNE,22,2.7,3.4,73,0.54,,---,0.54,VWS V14.01,2013-02-13 10:51:00,
2013-02-13 12:52:00,48.2,40.3,29.47,NE,45,2.9,2.9,74,0.54,,---,0.54,VWS V14.01,2013-02-13 10:52:00,
2013-02-13 12:53:00,48.4,40.5,29.44,NNE,22,3.1,3.1,74,0.54,,---,0.54,VWS V14.01,2013-02-13 10:53:00,
2013-02-13 12:54:00,48.4,40.5,29.44,NNE,22,3.4,3.4,74,0.54,,---,0.54,VWS V14.01,2013-02-13 10:54:00,
2013-02-13 12:56:00,48.4,40.5,29.44,NE,45,2.9,3.4,74,0.54,,---,0.54,VWS V14.01,2013-02-13 10:56:00,
2013-02-13 12:57:00,48.4,40.5,29.44,NNE,22,2.5,2.9,74,0.50,,---,0.54,VWS V14.01,2013-02-13 10:57:00,
2013-02-13 12:58:00,48.6,41.0,29.44,NE,45,1.3,2.5,75,0.46,,---,0.54,VWS V14.01,2013-02-13 10:58:00,
2013-02-13 12:59:00,48.6,41.0,29.44,NE,45,2.2,2.2,75,0.46,,---,0.54,VWS V14.01,2013-02-13 10:59:00,
2013-02-13 13:00:00,48.6,41.0,29.44,NE,45,0.0,2.2,75,0.46,,---,0.54,VWS V14.01,2013-02-13 11:00:00,
2013-02-13 13:02:00,48.7,41.2,29.44,ENE,68,2.0,2.0,75,0.46,,---,0.54,VWS V14.01,2013-02-13 11:02:00,
2013-02-13 13:04:00,48.7,41.2,29.44,ENE,68,2.9,2.9,75,0.38,,---,0.54,VWS V14.01,2013-02-13 11:04:00,
2013-02-13 13:05:00,48.7,41.2,29.44,ENE,68,0.0,2.9,75,0.38,,---,0.54,VWS V14.01,2013-02-13 11:05:00,
2013-02-13 13:06:00,48.7,41.2,29.44,ENE,68,0.9,0.9,75,0.38,,---,0.54,VWS V14.01,2013-02-13 11:06:00,
2013-02-13 13:07:00,48.9,41.4,29.44,NNE,22,2.0,2.0,75,0.38,,---,0.54,VWS V14.01,2013-02-13 11:07:00,
2013-02-13 13:08:00,49.1,41.5,29.44,NNE,22,2.0,2.0,75,0.38,,---,0.54,VWS V14.01,2013-02-13 11:08:00,
2013-02-13 13:09:00,49.1,41.9,29.44,North,0,2.5,2.5,76,0.34,,---,0.54,VWS V14.01,2013-02-13 11:09:00,
2013-02-13 13:10:00,49.1,41.9,29.44,North,0,2.0,2.5,76,0.34,,---,0.54,VWS V14.01,2013-02-13 11:10:00,
2013-02-13 13:12:00,49.1,41.9,29.44,North,0,1.6,2.0,76,0.30,,---,0.54,VWS V14.01,2013-02-13 11:12:00,
2013-02-13 13:13:00,49.3,42.0,29.44,North,0,2.5,2.5,76,0.30,,---,0.54,VWS V14.01,2013-02-13 11:13:00,
2013-02-13 13:14:00,49.3,42.0,29.44,North,0,2.0,2.5,76,0.25,,---,0.54,VWS V14.01,2013-02-13 11:14:00,
2013-02-13 13:15:00,49.3,42.0,29.44,North,0,1.3,2.0,76,0.25,,---,0.54,VWS V14.01,2013-02-13 11:15:00,
2013-02-13 13:16:00,49.3,42.0,29.44,North,0,2.0,2.0,76,0.25,,---,0.54,VWS V14.01,2013-02-13 11:16:00,
2013-02-13 13:17:00,49.6,42.4,29.44,NNW,338,1.1,2.0,76,0.25,,---,0.54,VWS V14.01,2013-02-13 11:17:00,
2013-02-13 13:18:00,49.6,42.4,29.44,NNW,338,2.9,2.9,76,0.21,,---,0.54,VWS V14.01,2013-02-13 11:18:00,
2013-02-13 13:19:00,49.8,42.9,29.44,North,0,3.1,3.1,77,0.21,,---,0.54,VWS V14.01,2013-02-13 11:19:00,
2013-02-13 13:20:00,49.8,42.9,29.44,NNW,338,2.5,3.1,77,0.17,,---,0.54,VWS V14.01,2013-02-13 11:20:00,
2013-02-13 13:21:00,49.8,42.9,29.44,NNE,22,2.0,2.5,77,0.17,,---,0.54,VWS V14.01,2013-02-13 11:21:00,
2013-02-13 13:22:00,49.8,42.9,29.44,North,0,1.6,2.0,77,0.17,,---,0.54,VWS V14.01,2013-02-13 11:22:00,
2013-02-13 13:23:00,49.8,42.9,29.47,NE,45,1.6,1.6,77,0.17,,---,0.54,VWS V14.01,2013-02-13 11:23:00,
2013-02-13 13:24:00,50.0,43.1,29.47,NNE,22,2.7,2.7,77,0.17,,---,0.54,VWS V14.01,2013-02-13 11:24:00,
2013-02-13 13:25:00,50.0,43.1,29.47,NNE,22,2.7,2.7,77,0.13,,---,0.54,VWS V14.01,2013-02-13 11:25:00,
2013-02-13 13:26:00,50.0,43.1,29.47,NNW,338,2.7,2.7,77,0.16,,---,0.57,VWS V14.01,2013-02-13 11:26:00,
2013-02-13 13:27:00,49.8,43.2,29.47,NNE,22,3.6,3.6,78,0.21,,---,0.62,VWS V14.01,2013-02-13 11:27:00,
2013-02-13 13:28:00,49.5,42.6,29.47,NNE,22,2.2,3.6,77,0.25,,---,0.66,VWS V14.01,2013-02-13 11:28:00,
2013-02-13 13:29:00,49.1,42.2,29.47,NNE,22,2.0,2.2,77,0.29,,---,0.70,VWS V14.01,2013-02-13 11:29:00,
2013-02-13 13:31:00,48.4,40.8,29.47,ENE,68,2.2,2.2,75,0.29,,---,0.70,VWS V14.01,2013-02-13 11:31:00,
2013-02-13 13:33:00,48.0,40.5,29.47,NNW,338,2.5,2.5,75,0.33,,---,0.74,VWS V14.01,2013-02-13 11:33:00,
2013-02-13 13:34:00,48.0,40.5,29.47,NNW,338,1.3,2.5,75,0.29,,---,0.74,VWS V14.01,2013-02-13 11:34:00,
2013-02-13 13:35:00,47.3,39.5,29.47,NNE,22,2.0,2.0,74,0.29,,---,0.74,VWS V14.01,2013-02-13 11:35:00,
2013-02-13 13:36:00,47.1,39.3,29.47,East,90,2.5,2.5,74,0.33,,---,0.78,VWS V14.01,2013-02-13 11:36:00,
2013-02-13 13:37:00,46.9,38.8,29.47,ESE,112,2.0,2.5,73,0.29,,---,0.78,VWS V14.01,2013-02-13 11:37:00,
2013-02-13 13:38:00,46.9,39.1,29.50,East,90,2.5,2.5,74,0.29,,---,0.78,VWS V14.01,2013-02-13 11:38:00,
2013-02-13 13:39:00,46.9,39.1,29.50,East,90,0.0,2.5,74,0.29,,---,0.78,VWS V14.01,2013-02-13 11:39:00,
2013-02-13 13:41:00,46.8,38.9,29.50,East,90,1.1,1.1,74,0.24,,---,0.78,VWS V14.01,2013-02-13 11:41:00,
2013-02-13 13:42:00,46.8,38.9,29.50,NE,45,2.5,2.5,74,0.29,,---,0.83,VWS V14.01,2013-02-13 11:42:00,
2013-02-13 13:43:00,46.6,38.8,29.50,NE,45,1.6,2.5,74,0.29,,---,0.83,VWS V14.01,2013-02-13 11:43:00,
2013-02-13 13:44:00,46.6,39.1,29.50,ESE,112,3.1,3.1,75,0.29,,---,0.83,VWS V14.01,2013-02-13 11:44:00,
2013-02-13 13:45:00,46.6,39.1,29.50,East,90,2.0,3.1,75,0.29,,---,0.83,VWS V14.01,2013-02-13 11:45:00,
2013-02-13 13:46:00,46.6,39.1,29.50,ESE,112,2.9,2.9,75,0.29,,---,0.83,VWS V14.01,2013-02-13 11:46:00,
2013-02-13 13:47:00,46.6,39.1,29.50,East,90,3.1,3.1,75,0.29,,---,0.83,VWS V14.01,2013-02-13 11:47:00,
2013-02-13 13:48:00,46.6,39.1,29.50,East,90,2.0,3.1,75,0.29,,---,0.83,VWS V14.01,2013-02-13 11:48:00,
2013-02-13 13:49:00,46.6,39.4,29.50,ENE,68,1.1,2.0,76,0.33,,---,0.87,VWS V14.01,2013-02-13 11:49:00,
2013-02-13 13:50:00,46.6,39.4,29.50,ENE,68,1.1,1.1,76,0.33,,---,0.87,VWS V14.01,2013-02-13 11:50:00,
2013-02-13 13:51:00,46.4,39.3,29.50,ENE,68,2.7,2.7,76,0.33,,---,0.87,VWS V14.01,2013-02-13 11:51:00,
2013-02-13 13:52:00,46.4,39.3,29.50,ENE,68,1.3,2.7,76,0.33,,---,0.87,VWS V14.01,2013-02-13 11:52:00,
2013-02-13 13:53:00,46.4,39.3,29.50,ENE,68,2.7,2.7,76,0.33,,---,0.87,VWS V14.01,2013-02-13 11:53:00,
2013-02-13 13:54:00,46.4,39.3,29.50,East,90,2.5,2.7,76,0.37,,---,0.91,VWS V14.01,2013-02-13 11:54:00,
2013-02-13 13:55:00,46.4,39.3,29.50,East,90,4.7,4.7,76,0.37,,---,0.91,VWS V14.01,2013-02-13 11:55:00,
2013-02-13 13:56:00,46.4,39.3,29.50,SE,135,2.9,4.7,76,0.37,,---,0.91,VWS V14.01,2013-02-13 11:56:00,
2013-02-13 13:57:00,46.4,39.3,29.50,SE,135,2.0,2.9,76,0.37,,---,0.91,VWS V14.01,2013-02-13 11:57:00,
2013-02-13 13:58:00,46.4,39.3,29.50,ESE,112,2.5,2.5,76,0.37,,---,0.91,VWS V14.01,2013-02-13 11:58:00,
2013-02-13 13:59:00,46.4,39.3,29.50,East,90,2.7,2.7,76,0.37,,---,0.91,VWS V14.01,2013-02-13 11:59:00,
2013-02-13 14:00:00,46.4,39.3,29.50,SE,135,1.6,2.7,76,0.37,,---,0.91,VWS V14.01,2013-02-13 12:00:00,
2013-02-13 14:01:00,46.4,39.6,29.50,SSE,158,2.0,2.0,77,0.41,,---,0.95,VWS V14.01,2013-02-13 12:01:00,
2013-02-13 14:02:00,46.4,39.6,29.50,SE,135,1.1,2.0,77,0.41,,---,0.95,VWS V14.01,2013-02-13 12:02:00,
2013-02-13 14:03:00,46.6,39.8,29.50,ENE,68,1.1,1.1,77,0.41,,---,0.95,VWS V14.01,2013-02-13 12:03:00,
2013-02-13 14:04:00,46.6,39.8,29.50,NNE,22,2.2,2.2,77,0.41,,---,0.95,VWS V14.01,2013-02-13 12:04:00,
2013-02-13 14:05:00,46.6,39.8,29.50,NNE,22,2.2,2.2,77,0.41,,---,0.95,VWS V14.01,2013-02-13 12:05:00,
2013-02-13 14:06:00,46.6,39.8,29.50,NNE,22,1.3,2.2,77,0.41,,---,0.95,VWS V14.01,2013-02-13 12:06:00,
2013-02-13 14:07:00,46.8,39.9,29.50,NNE,22,0.9,1.3,77,0.41,,---,0.95,VWS V14.01,2013-02-13 12:07:00,
2013-02-13 14:08:00,46.8,39.9,29.47,NNE,22,1.1,1.1,77,0.41,,---,0.95,VWS V14.01,2013-02-13 12:08:00,
2013-02-13 14:09:00,46.8,40.3,29.47,NNE,22,1.1,1.1,78,0.41,,---,0.95,VWS V14.01,2013-02-13 12:09:00,
2013-02-13 14:10:00,46.8,40.3,29.47,NNE,22,2.5,2.5,78,0.45,,---,0.99,VWS V14.01,2013-02-13 12:10:00,
2013-02-13 14:11:00,46.8,40.3,29.47,NNE,22,1.6,2.5,78,0.45,,---,0.99,VWS V14.01,2013-02-13 12:11:00,
2013-02-13 14:12:00,46.8,40.3,29.47,NNE,22,0.0,1.6,78,0.45,,---,0.99,VWS V14.01,2013-02-13 12:12:00,
2013-02-13 14:13:00,46.8,40.3,29.47,NNE,22,2.7,2.7,78,0.45,,---,0.99,VWS V14.01,2013-02-13 12:13:00,
2013-02-13 14:14:00,46.8,40.3,29.47,NNE,22,1.3,2.7,78,0.45,,---,0.99,VWS V14.01,2013-02-13 12:14:00,
2013-02-13 14:15:00,46.8,40.3,29.47,NNE,22,1.6,1.6,78,0.45,,---,0.99,VWS V14.01,2013-02-13 12:15:00,
2013-02-13 14:16:00,46.8,40.3,29.47,NNE,22,2.9,2.9,78,0.45,,---,0.99,VWS V14.01,2013-02-13 12:16:00,
2013-02-13 14:17:00,46.8,40.3,29.47,NNE,22,2.2,2.9,78,0.45,,---,0.99,VWS V14.01,2013-02-13 12:17:00,
2013-02-13 14:18:00,46.9,40.5,29.47,NNE,22,1.1,2.2,78,0.49,,---,1.03,VWS V14.01,2013-02-13 12:18:00,
2013-02-13 14:19:00,46.9,40.5,29.47,NNE,22,1.6,1.6,78,0.49,,---,1.03,VWS V14.01,2013-02-13 12:19:00,
2013-02-13 14:20:00,47.1,40.6,29.47,NE,45,2.0,2.0,78,0.49,,---,1.03,VWS V14.01,2013-02-13 12:20:00,
2013-02-13 14:22:00,47.1,41.0,29.47,ENE,68,1.3,2.0,79,0.49,,---,1.03,VWS V14.01,2013-02-13 12:22:00,
2013-02-13 14:23:00,47.1,41.0,29.47,ENE,68,1.1,1.3,79,0.49,,---,1.03,VWS V14.01,2013-02-13 12:23:00,
2013-02-13 14:24:00,47.1,41.0,29.47,NNE,22,2.7,2.7,79,0.49,,---,1.03,VWS V14.01,2013-02-13 12:24:00,
2013-02-13 14:25:00,47.3,41.1,29.47,NNE,22,2.9,2.9,79,0.49,,---,1.03,VWS V14.01,2013-02-13 12:25:00,
2013-02-13 14:26:00,47.3,41.1,29.47,NE,45,2.5,2.9,79,0.49,,---,1.03,VWS V14.01,2013-02-13 12:26:00,
2013-02-13 14:27:00,47.3,41.1,29.47,NNE,22,2.7,2.7,79,0.46,,---,1.03,VWS V14.01,2013-02-13 12:27:00,
2013-02-13 14:28:00,47.3,41.1,29.47,ENE,68,2.7,2.7,79,0.41,,---,1.03,VWS V14.01,2013-02-13 12:28:00,
2013-02-13 14:29:00,47.5,41.3,29.47,NE,45,2.5,2.7,79,0.37,,---,1.03,VWS V14.01,2013-02-13 12:29:00,
2013-02-13 14:30:00,47.5,41.3,29.47,NNE,22,1.6,2.5,79,0.33,,---,1.03,VWS V14.01,2013-02-13 12:30:00,
2013-02-13 14:31:00,47.5,41.3,29.47,ENE,68,3.6,3.6,79,0.37,,---,1.07,VWS V14.01,2013-02-13 12:31:00,
2013-02-13 14:32:00,47.5,41.3,29.47,NNE,22,2.2,3.6,79,0.37,,---,1.07,VWS V14.01,2013-02-13 12:32:00,
2013-02-13 14:33:00,47.7,41.8,29.47,NNE,22,2.2,2.2,80,0.33,,---,1.07,VWS V14.01,2013-02-13 12:33:00,
2013-02-13 14:34:00,47.7,41.8,29.47,NNE,22,2.5,2.5,80,0.33,,---,1.07,VWS V14.01,2013-02-13 12:34:00,
2013-02-13 14:35:00,47.7,41.8,29.47,NNE,22,2.2,2.5,80,0.33,,---,1.07,VWS V14.01,2013-02-13 12:35:00,
2013-02-13 14:36:00,47.7,41.8,29.47,NNE,22,2.0,2.2,80,0.33,,---,1.07,VWS V14.01,2013-02-13 12:36:00,
2013-02-13 14:37:00,47.7,41.8,29.47,NNE,22,3.4,3.4,80,0.29,,---,1.07,VWS V14.01,2013-02-13 12:37:00,
2013-02-13 14:38:00,47.7,41.8,29.47,NNE,22,2.7,3.4,80,0.29,,---,1.07,VWS V14.01,2013-02-13 12:38:00,
2013-02-13 14:39:00,47.7,41.8,29.47,NNE,22,1.6,2.7,80,0.29,,---,1.07,VWS V14.01,2013-02-13 12:39:00,
2013-02-13 14:40:00,47.7,41.8,29.47,NNE,22,0.9,1.6,80,0.29,,---,1.07,VWS V14.01,2013-02-13 12:40:00,
2013-02-13 14:41:00,47.8,42.0,29.47,North,0,2.9,2.9,80,0.29,,---,1.07,VWS V14.01,2013-02-13 12:41:00,
2013-02-13 14:42:00,47.8,42.0,29.47,North,0,0.0,2.9,80,0.29,,---,1.07,VWS V14.01,2013-02-13 12:42:00,
2013-02-13 14:43:00,47.8,42.0,29.47,North,0,2.7,2.7,80,0.24,,---,1.07,VWS V14.01,2013-02-13 12:43:00,
2013-02-13 14:44:00,48.0,42.2,29.47,North,0,2.0,2.7,80,0.24,,---,1.07,VWS V14.01,2013-02-13 12:44:00,
2013-02-13 14:45:00,48.0,42.2,29.47,North,0,2.2,2.2,80,0.28,,---,1.11,VWS V14.01,2013-02-13 12:45:00,
2013-02-13 14:46:00,48.2,42.3,29.47,North,0,1.3,2.2,80,0.28,,---,1.11,VWS V14.01,2013-02-13 12:46:00,
2013-02-13 14:47:00,48.2,42.3,29.47,NNE,22,0.9,1.3,80,0.28,,---,1.11,VWS V14.01,2013-02-13 12:47:00,
2013-02-13 14:48:00,48.2,42.3,29.47,NNE,22,1.1,1.1,80,0.28,,---,1.11,VWS V14.01,2013-02-13 12:48:00,
2013-02-13 14:49:00,48.4,42.5,29.47,NNE,22,1.1,1.1,80,0.28,,---,1.11,VWS V14.01,2013-02-13 12:49:00,
2013-02-13 14:50:00,48.4,42.8,29.47,NNE,22,0.0,1.1,81,0.24,,---,1.11,VWS V14.01,2013-02-13 12:50:00,
2013-02-13 14:51:00,48.4,42.8,29.47,NNE,22,0.0,0.0,81,0.24,,---,1.11,VWS V14.01,2013-02-13 12:51:00,
2013-02-13 14:52:00,48.6,43.0,29.47,NNE,22,1.3,1.3,81,0.29,,---,1.16,VWS V14.01,2013-02-13 12:52:00,
2013-02-13 14:53:00,48.6,43.0,29.47,NNE,22,2.2,2.2,81,0.29,,---,1.16,VWS V14.01,2013-02-13 12:53:00,
2013-02-13 14:54:00,48.7,43.2,29.47,North,0,2.5,2.5,81,0.29,,---,1.16,VWS V14.01,2013-02-13 12:54:00,
2013-02-13 14:55:00,48.7,43.2,29.47,North,0,0.0,2.5,81,0.25,,---,1.16,VWS V14.01,2013-02-13 12:55:00,
2013-02-13 14:56:00,48.7,43.2,29.47,North,0,1.1,1.1,81,0.25,,---,1.16,VWS V14.01,2013-02-13 12:56:00,
2013-02-13 14:57:00,48.7,43.2,29.47,North,0,0.0,1.1,81,0.25,,---,1.16,VWS V14.01,2013-02-13 12:57:00,
2013-02-13 14:58:00,48.7,43.2,29.47,NNE,22,1.1,1.1,81,0.25,,---,1.16,VWS V14.01,2013-02-13 12:58:00,
2013-02-13 14:59:00,48.7,43.2,29.47,East,90,1.3,1.3,81,0.25,,---,1.16,VWS V14.01,2013-02-13 12:59:00,
2013-02-13 15:00:00,48.9,43.3,29.47,ENE,68,1.1,1.3,81,0.25,,---,1.16,VWS V14.01,2013-02-13 13:00:00,
2013-02-13 15:01:00,48.9,43.3,29.47,ENE,68,1.3,1.3,81,0.25,,---,1.16,VWS V14.01,2013-02-13 13:01:00,
2013-02-13 15:02:00,48.9,43.3,29.47,ENE,68,0.0,1.3,81,0.21,,---,1.16,VWS V14.01,2013-02-13 13:02:00,
2013-02-13 15:04:00,49.1,43.5,29.47,ESE,112,0.9,0.9,81,0.25,,---,1.20,VWS V14.01,2013-02-13 13:04:00,
2013-02-13 15:05:00,49.1,43.5,29.47,SSE,158,1.6,1.6,81,0.25,,---,1.20,VWS V14.01,2013-02-13 13:05:00,
2013-02-13 15:06:00,49.3,43.7,29.47,ESE,112,0.9,1.6,81,0.25,,---,1.20,VWS V14.01,2013-02-13 13:06:00,
2013-02-13 15:07:00,49.3,43.7,29.47,SSE,158,2.5,2.5,81,0.25,,---,1.20,VWS V14.01,2013-02-13 13:07:00,
2013-02-13 15:08:00,49.3,43.7,29.47,SE,135,2.0,2.5,81,0.25,,---,1.20,VWS V14.01,2013-02-13 13:08:00,
2013-02-13 15:09:00,49.3,43.7,29.47,ESE,112,0.0,2.0,81,0.25,,---,1.20,VWS V14.01,2013-02-13 13:09:00,
2013-02-13 15:10:00,49.3,43.7,29.47,East,90,0.9,0.9,81,0.25,,---,1.20,VWS V14.01,2013-02-13 13:10:00,
2013-02-13 15:11:00,49.5,43.9,29.47,SSW,202,2.7,2.7,81,0.21,,---,1.20,VWS V14.01,2013-02-13 13:11:00,
2013-02-13 15:12:00,49.5,43.9,29.47,SSE,158,1.3,2.7,81,0.21,,---,1.20,VWS V14.01,2013-02-13 13:12:00,
2013-02-13 15:13:00,49.5,43.9,29.47,SE,135,2.2,2.2,81,0.21,,---,1.20,VWS V14.01,2013-02-13 13:13:00,
2013-02-13 15:14:00,49.5,43.9,29.47,SE,135,1.6,2.2,81,0.21,,---,1.20,VWS V14.01,2013-02-13 13:14:00,
2013-02-13 15:15:00,49.5,43.9,29.47,South,180,2.9,2.9,81,0.21,,---,1.20,VWS V14.01,2013-02-13 13:15:00,
2013-02-13 15:16:00,49.5,43.9,29.47,SSE,158,1.6,2.9,81,0.21,,---,1.20,VWS V14.01,2013-02-13 13:16:00,
2013-02-13 15:17:00,49.5,43.9,29.47,SSE,158,0.0,1.6,81,0.21,,---,1.20,VWS V14.01,2013-02-13 13:17:00,
2013-02-13 15:18:00,49.5,43.9,29.47,South,180,3.1,3.1,81,0.21,,---,1.20,VWS V14.01,2013-02-13 13:18:00,
2013-02-13 15:19:00,49.5,43.9,29.47,SE,135,1.3,3.1,81,0.17,,---,1.20,VWS V14.01,2013-02-13 13:19:00,
2013-02-13 15:20:00,49.5,43.9,29.47,SSE,158,2.5,2.5,81,0.17,,---,1.20,VWS V14.01,2013-02-13 13:20:00,
2013-02-13 15:21:00,49.5,43.9,29.47,SSE,158,3.6,3.6,81,0.17,,---,1.20,VWS V14.01,2013-02-13 13:21:00,
2013-02-13 15:22:00,49.5,43.9,29.47,SSE,158,7.8,7.8,81,0.17,,---,1.20,VWS V14.01,2013-02-13 13:22:00,
2013-02-13 15:24:00,49.6,44.1,29.44,SSW,202,2.0,7.8,81,0.17,,---,1.20,VWS V14.01,2013-02-13 13:24:00,
2013-02-13 15:25:00,49.6,44.1,29.44,SSW,202,0.9,2.0,81,0.17,,---,1.20,VWS V14.01,2013-02-13 13:25:00,
2013-02-13 15:26:00,49.8,44.2,29.44,SSE,158,3.6,3.6,81,0.17,,---,1.20,VWS V14.01,2013-02-13 13:26:00,
2013-02-13 15:27:00,49.8,44.2,29.44,South,180,1.3,3.6,81,0.17,,---,1.20,VWS V14.01,2013-02-13 13:27:00,
2013-02-13 15:28:00,49.8,44.2,29.44,SE,135,3.1,3.1,81,0.21,,---,1.24,VWS V14.01,2013-02-13 13:28:00,
2013-02-13 15:30:00,50.0,44.4,29.44,SSE,158,2.7,3.1,81,0.21,,---,1.24,VWS V14.01,2013-02-13 13:30:00,
2013-02-13 15:31:00,50.0,44.4,29.44,South,180,2.9,2.9,81,0.21,,---,1.24,VWS V14.01,2013-02-13 13:31:00,
2013-02-13 15:32:00,50.2,44.6,29.44,SSE,158,3.8,3.8,81,0.17,,---,1.24,VWS V14.01,2013-02-13 13:32:00,
2013-02-13 15:33:00,50.2,44.6,29.44,SSE,158,6.5,6.5,81,0.17,,---,1.24,VWS V14.01,2013-02-13 13:33:00,
2013-02-13 15:34:00,50.2,44.6,29.44,South,180,2.0,6.5,81,0.17,,---,1.24,VWS V14.01,2013-02-13 13:34:00,
2013-02-13 15:35:00,50.2,44.6,29.44,SSE,158,2.0,2.0,81,0.17,,---,1.24,VWS V14.01,2013-02-13 13:35:00,
2013-02-13 15:36:00,50.2,44.6,29.44,SSE,158,3.4,3.4,81,0.17,,---,1.24,VWS V14.01,2013-02-13 13:36:00,
2013-02-13 15:37:00,50.4,44.8,29.44,South,180,4.9,4.9,81,0.17,,---,1.24,VWS V14.01,2013-02-13 13:37:00,
2013-02-13 15:38:00,50.4,44.8,29.47,SSE,158,4.3,4.9,81,0.17,,---,1.24,VWS V14.01,2013-02-13 13:38:00,
2013-02-13 15:39:00,50.4,44.8,29.47,SSE,158,1.1,4.3,81,0.17,,---,1.24,VWS V14.01,2013-02-13 13:39:00,
2013-02-13 15:40:00,50.4,44.8,29.47,ESE,112,1.6,1.6,81,0.17,,---,1.24,VWS V14.01,2013-02-13 13:40:00,
2013-02-13 15:41:00,50.4,44.8,29.47,SE,135,2.0,2.0,81,0.17,,---,1.24,VWS V14.01,2013-02-13 13:41:00,
2013-02-13 15:42:00,50.5,44.9,29.47,SSE,158,3.1,3.1,81,0.17,,---,1.24,VWS V14.01,2013-02-13 13:42:00,
2013-02-13 15:43:00,50.5,44.9,29.47,ESE,112,3.1,3.1,81,0.17,,---,1.24,VWS V14.01,2013-02-13 13:43:00,
2013-02-13 15:44:00,50.5,44.9,29.47,ESE,112,2.0,3.1,81,0.17,,---,1.24,VWS V14.01,2013-02-13 13:44:00,
2013-02-13 15:45:00,50.5,44.9,29.47,SE,135,0.0,2.0,81,0.17,,---,1.24,VWS V14.01,2013-02-13 13:45:00,
2013-02-13 15:46:00,50.5,44.9,29.47,ESE,112,1.3,1.3,81,0.13,,---,1.24,VWS V14.01,2013-02-13 13:46:00,
2013-02-13 15:47:00,50.5,44.9,29.47,SE,135,0.0,1.3,81,0.13,,---,1.24,VWS V14.01,2013-02-13 13:47:00,
2013-02-13 15:48:00,50.7,45.1,29.47,ESE,112,2.0,2.0,81,0.13,,---,1.24,VWS V14.01,2013-02-13 13:48:00,
2013-02-13 15:49:00,50.7,45.1,29.47,SE,135,1.6,2.0,81,0.13,,---,1.24,VWS V14.01,2013-02-13 13:49:00,
2013-02-13 15:50:00,50.7,45.1,29.47,ESE,112,1.6,1.6,81,0.13,,---,1.24,VWS V14.01,2013-02-13 13:50:00,
2013-02-13 15:51:00,50.7,45.1,29.47,ESE,112,2.0,2.0,81,0.13,,---,1.24,VWS V14.01,2013-02-13 13:51:00,
2013-02-13 15:52:00,50.9,45.3,29.47,SE,135,2.9,2.9,81,0.13,,---,1.24,VWS V14.01,2013-02-13 13:52:00,
2013-02-13 15:53:00,50.7,45.1,29.44,SE,135,1.6,2.9,81,0.08,,---,1.24,VWS V14.01,2013-02-13 13:53:00,
2013-02-13 15:54:00,50.7,44.8,29.44,ESE,112,1.1,1.6,80,0.08,,---,1.24,VWS V14.01,2013-02-13 13:54:00,
2013-02-13 15:55:00,50.9,45.0,29.44,ESE,112,2.7,2.7,80,0.08,,---,1.24,VWS V14.01,2013-02-13 13:55:00,
2013-02-13 15:56:00,50.9,45.0,29.44,ESE,112,2.5,2.7,80,0.08,,---,1.24,VWS V14.01,2013-02-13 13:56:00,
2013-02-13 15:57:00,50.9,45.0,29.44,SE,135,1.6,2.5,80,0.08,,---,1.24,VWS V14.01,2013-02-13 13:57:00,
2013-02-13 15:58:00,50.9,45.0,29.44,SE,135,1.1,1.6,80,0.08,,---,1.24,VWS V14.01,2013-02-13 13:58:00,
2013-02-13 15:59:00,50.9,45.0,29.44,SSE,158,2.5,2.5,80,0.08,,---,1.24,VWS V14.01,2013-02-13 13:59:00,
2013-02-13 16:00:00,50.9,45.0,29.44,SE,135,2.9,2.9,80,0.08,,---,1.24,VWS V14.01,2013-02-13 14:00:00,
2013-02-13 16:01:00,50.9,45.0,29.44,SE,135,1.3,2.9,80,0.08,,---,1.24,VWS V14.01,2013-02-13 14:01:00,
2013-02-13 16:03:00,51.1,45.1,29.44,ESE,112,0.0,1.3,80,0.08,,---,1.24,VWS V14.01,2013-02-13 14:03:00,
2013-02-13 16:04:00,51.1,45.1,29.44,ESE,112,1.3,1.3,80,0.04,,---,1.24,VWS V14.01,2013-02-13 14:04:00,
2013-02-13 16:05:00,51.1,45.1,29.44,ESE,112,0.0,1.3,80,0.04,,---,1.24,VWS V14.01,2013-02-13 14:05:00,
2013-02-13 16:06:00,51.1,45.1,29.44,SSE,158,0.9,0.9,80,0.04,,---,1.24,VWS V14.01,2013-02-13 14:06:00,
2013-02-13 16:07:00,51.1,45.1,29.44,SSE,158,0.0,0.9,80,0.04,,---,1.24,VWS V14.01,2013-02-13 14:07:00,
2013-02-13 16:08:00,51.3,45.3,29.47,SSW,202,2.0,2.0,80,0.04,,---,1.24,VWS V14.01,2013-02-13 14:08:00,
2013-02-13 16:09:00,51.3,45.3,29.47,SW,225,0.9,2.0,80,0.04,,---,1.24,VWS V14.01,2013-02-13 14:09:00,
2013-02-13 16:10:00,51.3,45.3,29.47,SSE,158,3.6,3.6,80,0.04,,---,1.24,VWS V14.01,2013-02-13 14:10:00,
2013-02-13 16:11:00,51.3,45.3,29.47,South,180,2.5,3.6,80,0.04,,---,1.24,VWS V14.01,2013-02-13 14:11:00,
2013-02-13 16:12:00,51.3,45.3,29.47,SE,135,0.0,2.5,80,0.04,,---,1.24,VWS V14.01,2013-02-13 14:12:00,
2013-02-13 16:13:00,51.4,45.5,29.47,North,0,1.1,1.1,80,0.04,,---,1.24,VWS V14.01,2013-02-13 14:13:00,
2013-02-13 16:14:00,51.4,45.5,29.47,NNW,338,0.0,1.1,80,0.04,,---,1.24,VWS V14.01,2013-02-13 14:14:00,
2013-02-13 16:15:00,51.4,45.5,29.47,West,270,0.0,0.0,80,0.04,,---,1.24,VWS V14.01,2013-02-13 14:15:00,
2013-02-13 16:16:00,51.6,45.7,29.47,West,270,0.0,0.0,80,0.04,,---,1.24,VWS V14.01,2013-02-13 14:16:00,
2013-02-13 16:17:00,51.6,45.7,29.47,NW,315,2.5,2.5,80,0.04,,---,1.24,VWS V14.01,2013-02-13 14:17:00,
2013-02-13 16:18:00,51.6,45.7,29.47,NNW,338,1.3,2.5,80,0.04,,---,1.24,VWS V14.01,2013-02-13 14:18:00,
2013-02-13 16:19:00,51.6,45.7,29.47,NW,315,1.3,1.3,80,0.04,,---,1.24,VWS V14.01,2013-02-13 14:19:00,
2013-02-13 16:20:00,51.6,45.7,29.47,NNW,338,2.5,2.5,80,0.04,,---,1.24,VWS V14.01,2013-02-13 14:20:00,
2013-02-13 16:21:00,51.6,45.7,29.47,WNW,292,3.6,3.6,80,0.04,,---,1.24,VWS V14.01,2013-02-13 14:21:00,
2013-02-13 16:22:00,51.8,45.5,29.47,SSW,202,1.6,3.6,79,0.04,,---,1.24,VWS V14.01,2013-02-13 14:22:00,
2013-02-13 16:23:00,51.8,45.5,29.44,SSW,202,1.1,1.6,79,0.04,,---,1.24,VWS V14.01,2013-02-13 14:23:00,
2013-02-13 16:24:00,51.8,45.5,29.44,NNW,338,0.9,1.1,79,0.04,,---,1.24,VWS V14.01,2013-02-13 14:24:00,
2013-02-13 16:25:00,51.8,45.5,29.44,North,0,0.9,0.9,79,0.04,,---,1.24,VWS V14.01,2013-02-13 14:25:00,
2013-02-13 16:26:00,51.8,45.5,29.44,NNE,22,0.0,0.9,79,0.04,,---,1.24,VWS V14.01,2013-02-13 14:26:00,
2013-02-13 16:27:00,51.8,45.5,29.44,SSE,158,2.9,2.9,79,0.04,,---,1.24,VWS V14.01,2013-02-13 14:27:00,
2013-02-13 16:28:00,51.8,45.2,29.44,SSE,158,3.6,3.6,78,0.04,,---,1.24,VWS V14.01,2013-02-13 14:28:00,
2013-02-13 16:29:00,51.8,45.2,29.44,SSE,158,2.9,3.6,78,0.00,,---,1.24,VWS V14.01,2013-02-13 14:29:00,
2013-02-13 16:30:00,51.8,45.2,29.44,WSW,248,2.2,2.9,78,0.00,,---,1.24,VWS V14.01,2013-02-13 14:30:00,
2013-02-13 16:31:00,52.0,45.3,29.44,ENE,68,2.9,2.9,78,0.00,,---,1.24,VWS V14.01,2013-02-13 14:31:00,
2013-02-13 16:32:00,52.0,45.0,29.44,East,90,0.0,2.9,77,0.00,,---,1.24,VWS V14.01,2013-02-13 14:32:00,
2013-02-13 16:33:00,52.0,45.0,29.44,SSE,158,1.1,1.1,77,0.00,,---,1.24,VWS V14.01,2013-02-13 14:33:00,
2013-02-13 16:34:00,52.0,45.0,29.44,WSW,248,0.9,1.1,77,0.00,,---,1.24,VWS V14.01,2013-02-13 14:34:00,
2013-02-13 16:35:00,52.0,45.0,29.44,NNW,338,1.6,1.6,77,0.00,,---,1.24,VWS V14.01,2013-02-13 14:35:00,
2013-02-13 16:36:00,52.2,45.2,29.44,West,270,0.0,1.6,77,0.00,,---,1.24,VWS V14.01,2013-02-13 14:36:00,
2013-02-13 16:37:00,52.2,45.2,29.44,NE,45,3.8,3.8,77,0.00,,---,1.24,VWS V14.01,2013-02-13 14:37:00,
2013-02-13 16:38:00,52.2,45.2,29.44,NNW,338,2.7,3.8,77,0.00,,---,1.24,VWS V14.01,2013-02-13 14:38:00,
2013-02-13 16:39:00,52.2,44.8,29.44,WNW,292,1.3,2.7,76,0.00,,---,1.24,VWS V14.01,2013-02-13 14:39:00,
2013-02-13 16:40:00,52.2,44.8,29.44,ESE,112,1.6,1.6,76,0.00,,---,1.24,VWS V14.01,2013-02-13 14:40:00,
2013-02-13 16:41:00,52.2,44.8,29.44,SSE,158,2.9,2.9,76,0.00,,---,1.24,VWS V14.01,2013-02-13 14:41:00,
2013-02-13 16:42:00,52.3,45.0,29.44,South,180,3.6,3.6,76,0.00,,---,1.24,VWS V14.01,2013-02-13 14:42:00,
2013-02-13 16:44:00,52.3,44.7,29.44,South,180,4.0,4.0,75,0.00,,---,1.24,VWS V14.01,2013-02-13 14:44:00,
2013-02-13 16:45:00,52.3,44.7,29.44,South,180,1.6,4.0,75,0.00,,---,1.24,VWS V14.01,2013-02-13 14:45:00,
2013-02-13 16:46:00,52.3,44.7,29.44,SSW,202,2.7,2.7,75,0.00,,---,1.24,VWS V14.01,2013-02-13 14:46:00,
2013-02-13 16:47:00,52.3,44.7,29.44,South,180,2.9,2.9,75,0.00,,---,1.24,VWS V14.01,2013-02-13 14:47:00,
2013-02-13 16:48:00,52.5,44.5,29.44,West,270,2.5,2.9,74,0.00,,---,1.24,VWS V14.01,2013-02-13 14:48:00,
2013-02-13 16:49:00,52.7,44.7,29.44,SE,135,4.9,4.9,74,0.00,,---,1.24,VWS V14.01,2013-02-13 14:49:00,
2013-02-13 16:51:00,52.9,44.5,29.44,SSE,158,2.5,4.9,73,0.00,,---,1.24,VWS V14.01,2013-02-13 14:51:00,
2013-02-13 16:52:00,53.1,44.7,29.44,SSE,158,3.1,3.1,73,0.00,,---,1.24,VWS V14.01,2013-02-13 14:52:00,
2013-02-13 16:53:00,53.1,44.7,29.44,South,180,7.6,7.6,73,0.00,,---,1.24,VWS V14.01,2013-02-13 14:53:00,
2013-02-13 16:54:00,53.1,44.3,29.44,South,180,10.1,10.1,72,0.00,,---,1.24,VWS V14.01,2013-02-13 14:54:00,
2013-02-13 16:55:00,53.1,43.9,29.44,East,90,7.2,10.1,71,0.00,,---,1.24,VWS V14.01,2013-02-13 14:55:00,
2013-02-13 16:56:00,53.2,43.7,29.44,SE,135,3.8,7.2,70,0.00,,---,1.24,VWS V14.01,2013-02-13 14:56:00,
2013-02-13 16:57:00,53.4,43.5,29.44,SSE,158,5.8,5.8,69,0.00,,---,1.24,VWS V14.01,2013-02-13 14:57:00,
2013-02-13 16:58:00,53.4,43.5,29.44,SSE,158,5.6,5.8,69,0.00,,---,1.24,VWS V14.01,2013-02-13 14:58:00,
2013-02-13 16:59:00,53.4,43.5,29.44,South,180,5.6,5.6,69,0.00,,---,1.24,VWS V14.01,2013-02-13 14:59:00,
2013-02-13 17:00:00,53.6,43.3,29.44,South,180,7.2,7.2,68,0.00,,---,1.24,VWS V14.01,2013-02-13 15:00:00,
2013-02-13 17:01:00,53.6,42.9,29.44,South,180,6.3,7.2,67,0.00,,---,1.24,VWS V14.01,2013-02-13 15:01:00,
2013-02-13 17:02:00,53.6,42.5,29.44,SSE,158,3.6,6.3,66,0.00,,---,1.24,VWS V14.01,2013-02-13 15:02:00,
2013-02-13 17:03:00,53.6,42.5,29.44,SE,135,2.9,3.6,66,0.00,,---,1.24,VWS V14.01,2013-02-13 15:03:00,
2013-02-13 17:04:00,53.8,42.7,29.44,SSE,158,4.9,4.9,66,0.00,,---,1.24,VWS V14.01,2013-02-13 15:04:00,
2013-02-13 17:05:00,53.8,42.7,29.44,South,180,2.9,4.9,66,0.00,,---,1.24,VWS V14.01,2013-02-13 15:05:00,
2013-02-13 17:06:00,53.8,42.7,29.44,SSE,158,4.0,4.0,66,0.00,,---,1.24,VWS V14.01,2013-02-13 15:06:00,
2013-02-13 17:07:00,53.8,42.3,29.44,SSW,202,2.7,4.0,65,0.00,,---,1.24,VWS V14.01,2013-02-13 15:07:00,
2013-02-13 17:08:00,53.8,42.3,29.44,SE,135,1.3,2.7,65,0.00,,---,1.24,VWS V14.01,2013-02-13 15:08:00,
2013-02-13 17:09:00,53.8,42.3,29.44,South,180,2.7,2.7,65,0.00,,---,1.24,VWS V14.01,2013-02-13 15:09:00,
2013-02-13 17:10:00,53.8,42.7,29.44,ESE,112,2.5,2.7,66,0.00,,---,1.24,VWS V14.01,2013-02-13 15:10:00,
2013-02-13 17:11:00,53.8,42.7,29.44,ESE,112,2.2,2.5,66,0.00,,---,1.24,VWS V14.01,2013-02-13 15:11:00,
2013-02-13 17:12:00,53.8,42.7,29.44,SSE,158,4.9,4.9,66,0.00,,---,1.24,VWS V14.01,2013-02-13 15:12:00,
2013-02-13 17:13:00,53.6,42.1,29.44,SSE,158,2.0,4.9,65,0.00,,---,1.24,VWS V14.01,2013-02-13 15:13:00,
2013-02-13 17:14:00,53.6,42.1,29.44,SW,225,4.7,4.7,65,0.00,,---,1.24,VWS V14.01,2013-02-13 15:14:00,
2013-02-13 17:15:00,53.6,42.1,29.44,ESE,112,4.0,4.7,65,0.00,,---,1.24,VWS V14.01,2013-02-13 15:15:00,
2013-02-13 17:16:00,53.6,42.1,29.44,SSE,158,4.9,4.9,65,0.00,,---,1.24,VWS V14.01,2013-02-13 15:16:00,
2013-02-13 17:17:00,53.6,42.1,29.44,ESE,112,3.1,4.9,65,0.00,,---,1.24,VWS V14.01,2013-02-13 15:17:00,
2013-02-13 17:18:00,53.6,42.1,29.44,South,180,4.0,4.0,65,0.00,,---,1.24,VWS V14.01,2013-02-13 15:18:00,
2013-02-13 17:19:00,53.6,42.1,29.44,South,180,8.1,8.1,65,0.00,,---,1.24,VWS V14.01,2013-02-13 15:19:00,
2013-02-13 17:20:00,53.6,42.1,29.44,SSE,158,1.6,8.1,65,0.00,,---,1.24,VWS V14.01,2013-02-13 15:20:00,
2013-02-13 17:21:00,53.6,42.1,29.44,SSW,202,8.7,8.7,65,0.00,,---,1.24,VWS V14.01,2013-02-13 15:21:00,
2013-02-13 17:22:00,53.6,42.1,29.44,South,180,1.3,8.7,65,0.00,,---,1.24,VWS V14.01,2013-02-13 15:22:00,
2013-02-13 17:23:00,53.6,42.1,29.44,SSW,202,2.0,2.0,65,0.00,,---,1.24,VWS V14.01,2013-02-13 15:23:00,
2013-02-13 17:24:00,53.6,42.1,29.44,South,180,2.9,2.9,65,0.00,,---,1.24,VWS V14.01,2013-02-13 15:24:00,
2013-02-13 17:25:00,53.6,42.1,29.44,South,180,4.9,4.9,65,0.00,,---,1.24,VWS V14.01,2013-02-13 15:25:00,
2013-02-13 17:26:00,53.6,42.1,29.44,SSE,158,6.5,6.5,65,0.00,,---,1.24,VWS V14.01,2013-02-13 15:26:00,
2013-02-13 17:27:00,53.6,42.1,29.44,SE,135,3.1,6.5,65,0.00,,---,1.24,VWS V14.01,2013-02-13 15:27:00,
2013-02-13 17:28:00,53.6,42.1,29.44,SSW,202,7.2,7.2,65,0.00,,---,1.24,VWS V14.01,2013-02-13 15:28:00,
2013-02-13 17:29:00,53.6,42.1,29.44,SSE,158,7.8,7.8,65,0.00,,---,1.24,VWS V14.01,2013-02-13 15:29:00,
2013-02-13 17:30:00,53.6,42.1,29.44,SSE,158,2.5,7.8,65,0.00,,---,1.24,VWS V14.01,2013-02-13 15:30:00,
2013-02-13 17:31:00,53.6,42.5,29.44,SE,135,3.4,3.4,66,0.00,,---,1.24,VWS V14.01,2013-02-13 15:31:00,
2013-02-13 17:32:00,53.6,42.5,29.44,SSW,202,3.4,3.4,66,0.00,,---,1.24,VWS V14.01,2013-02-13 15:32:00,
2013-02-13 17:33:00,53.6,42.5,29.44,SSE,158,3.6,3.6,66,0.00,,---,1.24,VWS V14.01,2013-02-13 15:33:00,
2013-02-13 17:34:00,53.6,42.5,29.44,SSE,158,5.8,5.8,66,0.00,,---,1.24,VWS V14.01,2013-02-13 15:34:00,
2013-02-13 17:35:00,53.6,42.5,29.44,East,90,1.6,5.8,66,0.00,,---,1.24,VWS V14.01,2013-02-13 15:35:00,
2013-02-13 17:36:00,53.6,42.5,29.44,SSE,158,3.4,3.4,66,0.00,,---,1.24,VWS V14.01,2013-02-13 15:36:00,
2013-02-13 17:37:00,53.6,42.5,29.44,SW,225,8.5,8.5,66,0.00,,---,1.24,VWS V14.01,2013-02-13 15:37:00,
2013-02-13 17:38:00,53.6,42.5,29.44,SSE,158,3.8,8.5,66,0.00,,---,1.24,VWS V14.01,2013-02-13 15:38:00,
2013-02-13 17:39:00,53.6,42.5,29.44,SSE,158,3.8,3.8,66,0.00,,---,1.24,VWS V14.01,2013-02-13 15:39:00,
2013-02-13 17:40:00,53.6,42.5,29.44,SSE,158,6.0,6.0,66,0.00,,---,1.24,VWS V14.01,2013-02-13 15:40:00,
2013-02-13 17:41:00,53.6,42.5,29.44,East,90,3.4,6.0,66,0.00,,---,1.24,VWS V14.01,2013-02-13 15:41:00,
2013-02-13 17:42:00,53.6,42.5,29.44,ESE,112,2.9,3.4,66,0.00,,---,1.24,VWS V14.01,2013-02-13 15:42:00,
2013-02-13 17:43:00,53.4,42.8,29.44,ESE,112,7.4,7.4,67,0.00,,---,1.24,VWS V14.01,2013-02-13 15:43:00,
2013-02-13 17:44:00,53.4,42.8,29.44,ESE,112,3.8,7.4,67,0.00,,---,1.24,VWS V14.01,2013-02-13 15:44:00,
2013-02-13 17:45:00,53.4,42.8,29.44,SE,135,3.1,3.8,67,0.00,,---,1.24,VWS V14.01,2013-02-13 15:45:00,
2013-02-13 17:46:00,53.4,42.8,29.44,SSE,158,8.1,8.1,67,0.00,,---,1.24,VWS V14.01,2013-02-13 15:46:00,
2013-02-13 17:47:00,53.4,42.8,29.44,SSE,158,3.1,8.1,67,0.00,,---,1.24,VWS V14.01,2013-02-13 15:47:00,
2013-02-13 17:48:00,53.4,42.8,29.44,SSE,158,2.0,3.1,67,0.00,,---,1.24,VWS V14.01,2013-02-13 15:48:00,
2013-02-13 17:49:00,53.4,42.8,29.44,SSE,158,4.3,4.3,67,0.00,,---,1.24,VWS V14.01,2013-02-13 15:49:00,
2013-02-13 17:50:00,53.4,42.8,29.44,SSE,158,3.6,4.3,67,0.00,,---,1.24,VWS V14.01,2013-02-13 15:50:00,
2013-02-13 17:51:00,53.4,42.8,29.44,East,90,5.4,5.4,67,0.00,,---,1.24,VWS V14.01,2013-02-13 15:51:00,
2013-02-13 17:52:00,53.4,42.8,29.44,ENE,68,1.3,5.4,67,0.00,,---,1.24,VWS V14.01,2013-02-13 15:52:00,
2013-02-13 17:53:00,53.4,42.8,29.44,SE,135,4.5,4.5,67,0.00,,---,1.24,VWS V14.01,2013-02-13 15:53:00,
2013-02-13 17:54:00,53.4,42.8,29.44,ESE,112,2.2,4.5,67,0.00,,---,1.24,VWS V14.01,2013-02-13 15:54:00,
2013-02-13 17:55:00,53.4,42.8,29.44,SSE,158,2.5,2.5,67,0.00,,---,1.24,VWS V14.01,2013-02-13 15:55:00,
2013-02-13 17:56:00,53.4,42.8,29.44,SSE,158,4.3,4.3,67,0.00,,---,1.24,VWS V14.01,2013-02-13 15:56:00,
2013-02-13 17:57:00,53.4,42.8,29.44,SSE,158,2.2,4.3,67,0.00,,---,1.24,VWS V14.01,2013-02-13 15:57:00,
2013-02-13 17:58:00,53.2,42.6,29.44,SSE,158,5.4,5.4,67,0.00,,---,1.24,VWS V14.01,2013-02-13 15:58:00,
2013-02-13 17:59:00,53.2,42.6,29.44,South,180,5.6,5.6,67,0.00,,---,1.24,VWS V14.01,2013-02-13 15:59:00,
2013-02-13 18:00:00,53.2,42.6,29.44,SE,135,2.5,5.6,67,0.00,,---,1.24,VWS V14.01,2013-02-13 16:00:00,
2013-02-13 18:01:00,53.2,42.6,29.44,ESE,112,1.3,2.5,67,0.00,,---,1.24,VWS V14.01,2013-02-13 16:01:00,
2013-02-13 18:02:00,53.2,42.6,29.44,SE,135,5.8,5.8,67,0.00,,---,1.24,VWS V14.01,2013-02-13 16:02:00,
2013-02-13 18:03:00,53.2,42.6,29.44,SE,135,2.5,5.8,67,0.00,,---,1.24,VWS V14.01,2013-02-13 16:03:00,
2013-02-13 18:04:00,53.2,42.6,29.44,South,180,5.6,5.6,67,0.00,,---,1.24,VWS V14.01,2013-02-13 16:04:00,
2013-02-13 18:05:00,53.2,42.6,29.44,South,180,7.6,7.6,67,0.00,,---,1.24,VWS V14.01,2013-02-13 16:05:00,
2013-02-13 18:06:00,53.2,42.6,29.44,SSE,158,3.8,7.6,67,0.00,,---,1.24,VWS V14.01,2013-02-13 16:06:00,
2013-02-13 18:07:00,53.2,42.2,29.44,SSE,158,3.4,3.8,66,0.00,,---,1.24,VWS V14.01,2013-02-13 16:07:00,
2013-02-13 18:08:00,53.4,42.4,29.44,SSW,202,1.3,3.4,66,0.00,,---,1.24,VWS V14.01,2013-02-13 16:08:00,
2013-02-13 18:09:00,53.4,42.4,29.44,SSE,158,3.8,3.8,66,0.00,,---,1.24,VWS V14.01,2013-02-13 16:09:00,
2013-02-13 18:10:00,53.4,42.4,29.44,SW,225,1.3,3.8,66,0.00,,---,1.24,VWS V14.01,2013-02-13 16:10:00,
2013-02-13 18:11:00,53.4,42.4,29.44,SSW,202,1.1,1.3,66,0.00,,---,1.24,VWS V14.01,2013-02-13 16:11:00,
2013-02-13 18:12:00,53.4,42.4,29.44,SSE,158,2.7,2.7,66,0.00,,---,1.24,VWS V14.01,2013-02-13 16:12:00,
2013-02-13 18:13:00,53.4,42.4,29.44,SSE,158,4.3,4.3,66,0.00,,---,1.24,VWS V14.01,2013-02-13 16:13:00,
2013-02-13 18:14:00,53.4,42.4,29.44,SSW,202,1.6,4.3,66,0.00,,---,1.24,VWS V14.01,2013-02-13 16:14:00,
2013-02-13 18:15:00,53.4,42.4,29.44,SSE,158,6.3,6.3,66,0.00,,---,1.24,VWS V14.01,2013-02-13 16:15:00,
2013-02-13 18:16:00,53.4,42.4,29.44,SE,135,3.4,6.3,66,0.00,,---,1.24,VWS V14.01,2013-02-13 16:16:00,
2013-02-13 18:17:00,53.4,42.4,29.44,SSE,158,2.0,3.4,66,0.00,,---,1.24,VWS V14.01,2013-02-13 16:17:00,
2013-02-13 18:18:00,53.4,42.0,29.44,SSE,158,3.4,3.4,65,0.00,,---,1.24,VWS V14.01,2013-02-13 16:18:00,
2013-02-13 18:19:00,53.4,42.0,29.44,SE,135,6.0,6.0,65,0.00,,---,1.24,VWS V14.01,2013-02-13 16:19:00,
2013-02-13 18:20:00,53.4,42.0,29.44,South,180,0.9,6.0,65,0.00,,---,1.24,VWS V14.01,2013-02-13 16:20:00,
2013-02-13 18:21:00,53.4,42.0,29.44,SSE,158,2.0,2.0,65,0.00,,---,1.24,VWS V14.01,2013-02-13 16:21:00,
2013-02-13 18:22:00,53.4,42.0,29.44,SE,135,3.1,3.1,65,0.00,,---,1.24,VWS V14.01,2013-02-13 16:22:00,
2013-02-13 18:23:00,53.4,42.0,29.44,South,180,3.8,3.8,65,0.00,,---,1.24,VWS V14.01,2013-02-13 16:23:00,
2013-02-13 18:24:00,53.4,42.0,29.44,South,180,1.6,3.8,65,0.00,,---,1.24,VWS V14.01,2013-02-13 16:24:00,
2013-02-13 18:25:00,53.4,42.4,29.44,ESE,112,2.9,2.9,66,0.00,,---,1.24,VWS V14.01,2013-02-13 16:25:00,
2013-02-13 18:26:00,53.4,42.0,29.44,East,90,2.0,2.9,65,0.00,,---,1.24,VWS V14.01,2013-02-13 16:26:00,
2013-02-13 18:27:00,53.4,42.0,29.44,South,180,3.8,3.8,65,0.00,,---,1.24,VWS V14.01,2013-02-13 16:27:00,
2013-02-13 18:28:00,53.4,42.0,29.44,SSE,158,2.2,3.8,65,0.00,,---,1.24,VWS V14.01,2013-02-13 16:28:00,
2013-02-13 18:29:00,53.4,42.0,29.44,WSW,248,2.0,2.2,65,0.00,,---,1.24,VWS V14.01,2013-02-13 16:29:00,
2013-02-13 18:30:00,53.4,42.0,29.44,West,270,1.3,2.0,65,0.00,,---,1.24,VWS V14.01,2013-02-13 16:30:00,
2013-02-13 18:31:00,53.4,42.0,29.44,South,180,2.5,2.5,65,0.00,,---,1.24,VWS V14.01,2013-02-13 16:31:00,
2013-02-13 18:32:00,53.4,42.0,29.44,South,180,4.9,4.9,65,0.00,,---,1.24,VWS V14.01,2013-02-13 16:32:00,
2013-02-13 18:33:00,53.4,42.0,29.44,SE,135,3.4,4.9,65,0.00,,---,1.24,VWS V14.01,2013-02-13 16:33:00,
2013-02-13 18:34:00,53.4,42.0,29.44,ESE,112,2.7,3.4,65,0.00,,---,1.24,VWS V14.01,2013-02-13 16:34:00,
2013-02-13 18:35:00,53.4,42.0,29.44,East,90,0.0,2.7,65,0.00,,---,1.24,VWS V14.01,2013-02-13 16:35:00,
2013-02-13 18:36:00,53.4,42.0,29.44,SSE,158,4.7,4.7,65,0.00,,---,1.24,VWS V14.01,2013-02-13 16:36:00,
2013-02-13 18:37:00,53.4,42.0,29.44,ESE,112,1.3,4.7,65,0.00,,---,1.24,VWS V14.01,2013-02-13 16:37:00,
2013-02-13 18:38:00,53.4,42.0,29.44,South,180,6.3,6.3,65,0.00,,---,1.24,VWS V14.01,2013-02-13 16:38:00,
2013-02-13 18:39:00,53.4,42.0,29.44,South,180,2.2,6.3,65,0.00,,---,1.24,VWS V14.01,2013-02-13 16:39:00,
2013-02-13 18:40:00,53.4,42.0,29.44,SSW,202,2.2,2.2,65,0.00,,---,1.24,VWS V14.01,2013-02-13 16:40:00,
2013-02-13 18:41:00,53.4,42.0,29.44,ESE,112,2.0,2.2,65,0.00,,---,1.24,VWS V14.01,2013-02-13 16:41:00,
2013-02-13 18:42:00,53.4,42.0,29.44,WSW,248,2.5,2.5,65,0.00,,---,1.24,VWS V14.01,2013-02-13 16:42:00,
2013-02-13 18:43:00,53.4,42.0,29.44,ESE,112,2.5,2.5,65,0.00,,---,1.24,VWS V14.01,2013-02-13 16:43:00,
2013-02-13 18:44:00,53.6,41.7,29.44,SSE,158,1.3,2.5,64,0.00,,---,1.24,VWS V14.01,2013-02-13 16:44:00,
2013-02-13 18:45:00,53.6,41.7,29.44,SSE,158,2.0,2.0,64,0.00,,---,1.24,VWS V14.01,2013-02-13 16:45:00,
2013-02-13 18:46:00,53.6,41.7,29.44,South,180,1.3,2.0,64,0.00,,---,1.24,VWS V14.01,2013-02-13 16:46:00,
2013-02-13 18:47:00,53.6,41.7,29.44,SW,225,1.3,1.3,64,0.00,,---,1.24,VWS V14.01,2013-02-13 16:47:00,
2013-02-13 18:48:00,53.6,41.7,29.44,NW,315,2.0,2.0,64,0.00,,---,1.24,VWS V14.01,2013-02-13 16:48:00,
2013-02-13 18:49:00,53.6,41.7,29.44,SSW,202,2.9,2.9,64,0.00,,---,1.24,VWS V14.01,2013-02-13 16:49:00,
2013-02-13 18:50:00,53.6,41.7,29.44,ESE,112,1.6,2.9,64,0.00,,---,1.24,VWS V14.01,2013-02-13 16:50:00,
2013-02-13 18:51:00,53.6,41.7,29.44,SSE,158,0.9,1.6,64,0.00,,---,1.24,VWS V14.01,2013-02-13 16:51:00,
2013-02-13 18:52:00,53.6,41.7,29.44,ESE,112,4.7,4.7,64,0.00,,---,1.24,VWS V14.01,2013-02-13 16:52:00,
2013-02-13 18:53:00,53.6,41.7,29.44,SE,135,1.3,4.7,64,0.00,,---,1.24,VWS V14.01,2013-02-13 16:53:00,
2013-02-13 18:54:00,53.6,41.7,29.44,SE,135,2.5,2.5,64,0.00,,---,1.24,VWS V14.01,2013-02-13 16:54:00,
2013-02-13 18:55:00,53.6,41.7,29.44,SSE,158,1.6,2.5,64,0.00,,---,1.24,VWS V14.01,2013-02-13 16:55:00,
2013-02-13 18:56:00,53.6,41.7,29.44,South,180,3.4,3.4,64,0.00,,---,1.24,VWS V14.01,2013-02-13 16:56:00,
2013-02-13 18:57:00,53.6,42.1,29.44,SSE,158,1.6,3.4,65,0.00,,---,1.24,VWS V14.01,2013-02-13 16:57:00,
2013-02-13 18:58:00,53.6,42.1,29.44,South,180,3.4,3.4,65,0.00,,---,1.24,VWS V14.01,2013-02-13 16:58:00,
2013-02-13 18:59:00,53.6,42.1,29.44,SSE,158,1.6,3.4,65,0.00,,---,1.24,VWS V14.01,2013-02-13 16:59:00,
2013-02-13 19:01:00,53.6,42.1,29.44,East,90,4.9,4.9,65,0.00,,---,1.24,VWS V14.01,2013-02-13 17:01:00,
2013-02-13 19:02:00,53.6,42.1,29.44,SE,135,2.5,4.9,65,0.00,,---,1.24,VWS V14.01,2013-02-13 17:02:00,
2013-02-13 19:03:00,53.6,42.1,29.44,SE,135,4.9,4.9,65,0.00,,---,1.24,VWS V14.01,2013-02-13 17:03:00,
2013-02-13 19:04:00,53.6,42.1,29.44,SSE,158,5.4,5.4,65,0.00,,---,1.24,VWS V14.01,2013-02-13 17:04:00,
2013-02-13 19:05:00,53.8,41.9,29.44,SE,135,2.2,5.4,64,0.00,,---,1.24,VWS V14.01,2013-02-13 17:05:00,
2013-02-13 19:06:00,53.8,41.9,29.44,SSE,158,6.5,6.5,64,0.00,,---,1.24,VWS V14.01,2013-02-13 17:06:00,
2013-02-13 19:08:00,54.0,42.1,29.44,SE,135,4.5,6.5,64,0.00,,---,1.24,VWS V14.01,2013-02-13 17:08:00,
2013-02-13 19:09:00,54.0,42.1,29.44,ESE,112,2.9,4.5,64,0.00,,---,1.24,VWS V14.01,2013-02-13 17:09:00,
2013-02-13 19:10:00,54.0,42.1,29.44,SSE,158,1.1,2.9,64,0.00,,---,1.24,VWS V14.01,2013-02-13 17:10:00,
2013-02-13 19:11:00,54.0,42.1,29.44,SSE,158,3.4,3.4,64,0.00,,---,1.24,VWS V14.01,2013-02-13 17:11:00,
2013-02-13 19:12:00,54.0,42.1,29.44,South,180,3.4,3.4,64,0.00,,---,1.24,VWS V14.01,2013-02-13 17:12:00,
2013-02-13 19:13:00,54.1,41.8,29.44,South,180,0.0,3.4,63,0.00,,---,1.24,VWS V14.01,2013-02-13 17:13:00,
2013-02-13 19:14:00,54.1,41.8,29.44,SSW,202,2.0,2.0,63,0.00,,---,1.24,VWS V14.01,2013-02-13 17:14:00,
2013-02-13 19:15:00,54.1,41.8,29.44,SSE,158,2.9,2.9,63,0.00,,---,1.24,VWS V14.01,2013-02-13 17:15:00,
2013-02-13 19:16:00,54.1,41.8,29.44,SSE,158,4.7,4.7,63,0.00,,---,1.24,VWS V14.01,2013-02-13 17:16:00,
2013-02-13 19:17:00,54.1,41.8,29.44,SSE,158,2.5,4.7,63,0.00,,---,1.24,VWS V14.01,2013-02-13 17:17:00,
2013-02-13 19:18:00,54.3,42.0,29.44,SE,135,1.3,2.5,63,0.00,,---,1.24,VWS V14.01,2013-02-13 17:18:00,
2013-02-13 19:19:00,54.3,42.0,29.44,SE,135,3.8,3.8,63,0.00,,---,1.24,VWS V14.01,2013-02-13 17:19:00,
2013-02-13 19:20:00,54.3,42.0,29.44,ESE,112,1.3,3.8,63,0.00,,---,1.24,VWS V14.01,2013-02-13 17:20:00,
2013-02-13 19:21:00,54.3,42.0,29.44,ESE,112,2.9,2.9,63,0.00,,---,1.24,VWS V14.01,2013-02-13 17:21:00,
2013-02-13 19:22:00,54.3,42.0,29.44,ESE,112,4.3,4.3,63,0.00,,---,1.24,VWS V14.01,2013-02-13 17:22:00,
2013-02-13 19:23:00,54.3,42.0,29.47,SE,135,1.6,4.3,63,0.00,,---,1.24,VWS V14.01,2013-02-13 17:23:00,
2013-02-13 19:24:00,54.3,42.0,29.47,SSE,158,1.6,1.6,63,0.00,,---,1.24,VWS V14.01,2013-02-13 17:24:00,
2013-02-13 19:25:00,54.3,42.0,29.47,SE,135,2.5,2.5,63,0.00,,---,1.24,VWS V14.01,2013-02-13 17:25:00,
2013-02-13 19:26:00,54.3,42.0,29.47,South,180,1.1,2.5,63,0.00,,---,1.24,VWS V14.01,2013-02-13 17:26:00,
2013-02-13 19:27:00,54.3,42.0,29.47,SSE,158,3.8,3.8,63,0.00,,---,1.24,VWS V14.01,2013-02-13 17:27:00,
2013-02-13 19:28:00,54.3,41.6,29.47,SSE,158,1.6,3.8,62,0.00,,---,1.24,VWS V14.01,2013-02-13 17:28:00,
2013-02-13 19:29:00,54.3,42.0,29.47,SSE,158,0.9,1.6,63,0.00,,---,1.24,VWS V14.01,2013-02-13 17:29:00,
2013-02-13 19:30:00,54.3,41.6,29.47,South,180,6.3,6.3,62,0.00,,---,1.24,VWS V14.01,2013-02-13 17:30:00,
2013-02-13 19:31:00,54.3,41.6,29.47,SSE,158,5.6,6.3,62,0.00,,---,1.24,VWS V14.01,2013-02-13 17:31:00,
2013-02-13 19:32:00,54.3,41.6,29.47,SSE,158,3.4,5.6,62,0.00,,---,1.24,VWS V14.01,2013-02-13 17:32:00,
2013-02-13 19:33:00,54.3,41.6,29.47,South,180,3.4,3.4,62,0.00,,---,1.24,VWS V14.01,2013-02-13 17:33:00,
2013-02-13 19:34:00,54.3,41.6,29.47,SSE,158,3.4,3.4,62,0.00,,---,1.24,VWS V14.01,2013-02-13 17:34:00,
2013-02-13 19:35:00,54.5,41.8,29.47,SSE,158,2.7,3.4,62,0.00,,---,1.24,VWS V14.01,2013-02-13 17:35:00,
2013-02-13 19:36:00,54.5,41.8,29.47,South,180,3.4,3.4,62,0.00,,---,1.24,VWS V14.01,2013-02-13 17:36:00,
2013-02-13 19:37:00,54.5,41.8,29.47,SSE,158,0.9,3.4,62,0.00,,---,1.24,VWS V14.01,2013-02-13 17:37:00,
2013-02-13 19:38:00,54.5,41.8,29.47,SE,135,2.5,2.5,62,0.00,,---,1.24,VWS V14.01,2013-02-13 17:38:00,
2013-02-13 19:39:00,54.5,42.2,29.47,SSE,158,2.0,2.5,63,0.00,,---,1.24,VWS V14.01,2013-02-13 17:39:00,
2013-02-13 19:40:00,54.5,42.2,29.47,SSE,158,4.3,4.3,63,0.00,,---,1.24,VWS V14.01,2013-02-13 17:40:00,
2013-02-13 19:41:00,54.5,42.2,29.47,SSE,158,1.1,4.3,63,0.00,,---,1.24,VWS V14.01,2013-02-13 17:41:00,
2013-02-13 19:42:00,54.5,42.2,29.47,SSE,158,3.4,3.4,63,0.00,,---,1.24,VWS V14.01,2013-02-13 17:42:00,
2013-02-13 19:43:00,54.5,42.2,29.47,SSE,158,1.1,3.4,63,0.00,,---,1.24,VWS V14.01,2013-02-13 17:43:00,
2013-02-13 19:44:00,54.5,42.2,29.47,South,180,1.3,1.3,63,0.00,,---,1.24,VWS V14.01,2013-02-13 17:44:00,
2013-02-13 19:45:00,54.5,42.2,29.47,SSE,158,1.3,1.3,63,0.00,,---,1.24,VWS V14.01,2013-02-13 17:45:00,
2013-02-13 19:46:00,54.5,42.2,29.47,SSW,202,2.2,2.2,63,0.00,,---,1.24,VWS V14.01,2013-02-13 17:46:00,
2013-02-13 19:47:00,54.5,42.2,29.47,SSE,158,3.4,3.4,63,0.00,,---,1.24,VWS V14.01,2013-02-13 17:47:00,
2013-02-13 19:48:00,54.5,42.2,29.47,SSE,158,2.0,3.4,63,0.00,,---,1.24,VWS V14.01,2013-02-13 17:48:00,
2013-02-13 19:49:00,54.5,42.2,29.47,SSE,158,2.7,2.7,63,0.00,,---,1.24,VWS V14.01,2013-02-13 17:49:00,
2013-02-13 19:50:00,54.5,42.2,29.47,ESE,112,4.3,4.3,63,0.00,,---,1.24,VWS V14.01,2013-02-13 17:50:00,
2013-02-13 19:51:00,54.5,42.2,29.47,ESE,112,0.0,4.3,63,0.00,,---,1.24,VWS V14.01,2013-02-13 17:51:00,
2013-02-13 19:52:00,54.5,42.2,29.47,SSE,158,2.0,2.0,63,0.00,,---,1.24,VWS V14.01,2013-02-13 17:52:00,
2013-02-13 19:53:00,54.5,42.2,29.47,ESE,112,2.0,2.0,63,0.00,,---,1.24,VWS V14.01,2013-02-13 17:53:00,
2013-02-13 19:54:00,54.5,42.2,29.47,SSE,158,1.6,2.0,63,0.00,,---,1.24,VWS V14.01,2013-02-13 17:54:00,
2013-02-13 19:55:00,54.5,42.2,29.47,South,180,3.8,3.8,63,0.00,,---,1.24,VWS V14.01,2013-02-13 17:55:00,
2013-02-13 19:56:00,54.5,42.2,29.47,South,180,0.9,3.8,63,0.00,,---,1.24,VWS V14.01,2013-02-13 17:56:00,
2013-02-13 19:57:00,54.5,42.2,29.47,South,180,0.0,0.9,63,0.00,,---,1.24,VWS V14.01,2013-02-13 17:57:00,
2013-02-13 19:58:00,54.5,42.2,29.47,SE,135,1.6,1.6,63,0.00,,---,1.24,VWS V14.01,2013-02-13 17:58:00,
2013-02-13 19:59:00,54.5,42.2,29.47,SE,135,2.0,2.0,63,0.00,,---,1.24,VWS V14.01,2013-02-13 17:59:00,
2013-02-13 20:00:00,54.5,42.2,29.47,South,180,1.6,2.0,63,0.00,,---,1.24,VWS V14.01,2013-02-13 18:00:00,
2013-02-13 20:01:00,54.5,42.2,29.47,SSE,158,2.5,2.5,63,0.00,,---,1.24,VWS V14.01,2013-02-13 18:01:00,
2013-02-13 20:02:00,54.5,42.2,29.47,SSE,158,0.0,2.5,63,0.00,,---,1.24,VWS V14.01,2013-02-13 18:02:00,
2013-02-13 20:03:00,54.7,42.3,29.47,SE,135,0.0,0.0,63,0.00,,---,1.24,VWS V14.01,2013-02-13 18:03:00,
2013-02-13 20:04:00,54.7,42.3,29.47,SSE,158,3.1,3.1,63,0.00,,---,1.24,VWS V14.01,2013-02-13 18:04:00,
2013-02-13 20:05:00,54.7,42.3,29.47,SSE,158,3.8,3.8,63,0.00,,---,1.24,VWS V14.01,2013-02-13 18:05:00,
2013-02-13 20:06:00,54.7,42.3,29.47,ESE,112,2.2,3.8,63,0.00,,---,1.24,VWS V14.01,2013-02-13 18:06:00,
2013-02-13 20:07:00,54.7,42.3,29.47,SE,135,0.0,2.2,63,0.00,,---,1.24,VWS V14.01,2013-02-13 18:07:00,
2013-02-13 20:08:00,54.7,42.3,29.47,SSE,158,4.0,4.0,63,0.00,,---,1.24,VWS V14.01,2013-02-13 18:08:00,
2013-02-13 20:09:00,54.7,42.3,29.47,SSW,202,2.2,4.0,63,0.00,,---,1.24,VWS V14.01,2013-02-13 18:09:00,
2013-02-13 20:10:00,54.7,42.3,29.47,SE,135,4.9,4.9,63,0.00,,---,1.24,VWS V14.01,2013-02-13 18:10:00,
2013-02-13 20:11:00,54.7,42.3,29.47,South,180,0.0,4.9,63,0.00,,---,1.24,VWS V14.01,2013-02-13 18:11:00,
2013-02-13 20:12:00,54.7,42.3,29.47,East,90,2.2,2.2,63,0.00,,---,1.24,VWS V14.01,2013-02-13 18:12:00,
2013-02-13 20:13:00,54.7,42.3,29.47,East,90,0.0,2.2,63,0.00,,---,1.24,VWS V14.01,2013-02-13 18:13:00,
2013-02-13 20:14:00,54.7,42.3,29.47,East,90,0.0,0.0,63,0.00,,---,1.24,VWS V14.01,2013-02-13 18:14:00,
2013-02-13 20:15:00,54.7,42.3,29.47,ENE,68,2.0,2.0,63,0.00,,---,1.24,VWS V14.01,2013-02-13 18:15:00,
2013-02-13 20:16:00,54.7,42.3,29.47,ENE,68,0.0,2.0,63,0.00,,---,1.24,VWS V14.01,2013-02-13 18:16:00,
2013-02-13 20:17:00,54.7,42.3,29.47,NE,45,0.0,0.0,63,0.00,,---,1.24,VWS V14.01,2013-02-13 18:17:00,
2013-02-13 20:18:00,54.7,42.3,29.47,NNE,22,0.0,0.0,63,0.00,,---,1.24,VWS V14.01,2013-02-13 18:18:00,
2013-02-13 20:19:00,54.7,42.3,29.47,SW,225,1.1,1.1,63,0.00,,---,1.24,VWS V14.01,2013-02-13 18:19:00,
2013-02-13 20:20:00,54.7,42.3,29.47,WNW,292,0.9,1.1,63,0.00,,---,1.24,VWS V14.01,2013-02-13 18:20:00,
2013-02-13 20:21:00,54.7,42.3,29.47,NNW,338,1.3,1.3,63,0.00,,---,1.24,VWS V14.01,2013-02-13 18:21:00,
2013-02-13 20:22:00,54.7,42.3,29.47,SSE,158,1.1,1.3,63,0.00,,---,1.24,VWS V14.01,2013-02-13 18:22:00,
2013-02-13 20:23:00,54.7,42.3,29.47,ESE,112,2.7,2.7,63,0.00,,---,1.24,VWS V14.01,2013-02-13 18:23:00,
2013-02-13 20:24:00,54.7,42.3,29.47,SSE,158,1.1,2.7,63,0.00,,---,1.24,VWS V14.01,2013-02-13 18:24:00,
2013-02-13 20:25:00,54.7,42.3,29.47,SSW,202,1.3,1.3,63,0.00,,---,1.24,VWS V14.01,2013-02-13 18:25:00,
2013-02-13 20:26:00,54.7,42.3,29.47,SSW,202,4.0,4.0,63,0.00,,---,1.24,VWS V14.01,2013-02-13 18:26:00,
2013-02-13 20:27:00,54.7,42.3,29.47,SSE,158,1.6,4.0,63,0.00,,---,1.24,VWS V14.01,2013-02-13 18:27:00,
2013-02-13 20:28:00,54.7,42.3,29.47,South,180,3.4,3.4,63,0.00,,---,1.24,VWS V14.01,2013-02-13 18:28:00,
2013-02-13 20:29:00,54.7,42.3,29.47,East,90,1.1,3.4,63,0.00,,---,1.24,VWS V14.01,2013-02-13 18:29:00,
2013-02-13 20:30:00,54.7,42.3,29.47,South,180,2.9,2.9,63,0.00,,---,1.24,VWS V14.01,2013-02-13 18:30:00,
2013-02-13 20:31:00,54.7,42.3,29.47,SSE,158,5.8,5.8,63,0.00,,---,1.24,VWS V14.01,2013-02-13 18:31:00,
2013-02-13 20:32:00,54.7,42.3,29.47,SSE,158,3.4,5.8,63,0.00,,---,1.24,VWS V14.01,2013-02-13 18:32:00,
2013-02-13 20:33:00,54.7,41.5,29.47,South,180,3.1,3.4,61,0.00,,---,1.24,VWS V14.01,2013-02-13 18:33:00,
2013-02-13 20:34:00,54.7,40.7,29.47,South,180,9.2,9.2,59,0.00,,---,1.24,VWS V14.01,2013-02-13 18:34:00,
2013-02-13 20:35:00,54.7,40.7,29.47,WNW,292,2.9,9.2,59,0.00,,---,1.24,VWS V14.01,2013-02-13 18:35:00,
2013-02-13 20:36:00,54.7,40.7,29.47,East,90,3.1,3.1,59,0.00,,---,1.24,VWS V14.01,2013-02-13 18:36:00,
2013-02-13 20:37:00,54.7,40.2,29.47,SSW,202,3.8,3.8,58,0.00,,---,1.24,VWS V14.01,2013-02-13 18:37:00,
2013-02-13 20:38:00,54.9,39.5,29.47,SE,135,7.2,7.2,56,0.00,,---,1.24,VWS V14.01,2013-02-13 18:38:00,
2013-02-13 20:39:00,54.9,39.5,29.47,SSW,202,3.8,7.2,56,0.00,,---,1.24,VWS V14.01,2013-02-13 18:39:00,
2013-02-13 20:40:00,54.9,39.5,29.47,SSW,202,0.0,3.8,56,0.00,,---,1.24,VWS V14.01,2013-02-13 18:40:00,
2013-02-13 20:41:00,54.9,39.5,29.47,WNW,292,2.0,2.0,56,0.00,,---,1.24,VWS V14.01,2013-02-13 18:41:00,
2013-02-13 20:42:00,54.9,39.9,29.47,NNW,338,0.9,2.0,57,0.00,,---,1.24,VWS V14.01,2013-02-13 18:42:00,
2013-02-13 20:43:00,54.9,39.9,29.47,WSW,248,1.6,1.6,57,0.00,,---,1.24,VWS V14.01,2013-02-13 18:43:00,
2013-02-13 20:44:00,54.9,39.5,29.47,SSE,158,2.7,2.7,56,0.00,,---,1.24,VWS V14.01,2013-02-13 18:44:00,
2013-02-13 20:45:00,54.7,38.8,29.47,ESE,112,2.0,2.7,55,0.00,,---,1.24,VWS V14.01,2013-02-13 18:45:00,
2013-02-13 20:46:00,54.7,38.8,29.47,ESE,112,1.1,2.0,55,0.00,,---,1.24,VWS V14.01,2013-02-13 18:46:00,
2013-02-13 20:47:00,54.7,38.8,29.47,East,90,2.5,2.5,55,0.00,,---,1.24,VWS V14.01,2013-02-13 18:47:00,
2013-02-13 20:48:00,54.7,38.8,29.47,SSW,202,2.7,2.7,55,0.00,,---,1.24,VWS V14.01,2013-02-13 18:48:00,
2013-02-13 20:49:00,54.7,38.8,29.47,North,0,1.6,2.7,55,0.00,,---,1.24,VWS V14.01,2013-02-13 18:49:00,
2013-02-13 20:50:00,54.7,38.8,29.47,SSE,158,3.1,3.1,55,0.00,,---,1.24,VWS V14.01,2013-02-13 18:50:00,
2013-02-13 20:51:00,54.7,38.8,29.47,SSE,158,3.8,3.8,55,0.00,,---,1.24,VWS V14.01,2013-02-13 18:51:00,
2013-02-13 20:52:00,54.7,38.8,29.47,South,180,1.6,3.8,55,0.00,,---,1.24,VWS V14.01,2013-02-13 18:52:00,
2013-02-13 20:53:00,54.7,38.4,29.47,SE,135,2.7,2.7,54,0.00,,---,1.24,VWS V14.01,2013-02-13 18:53:00,
2013-02-13 20:54:00,54.7,38.8,29.47,SSE,158,2.7,2.7,55,0.00,,---,1.24,VWS V14.01,2013-02-13 18:54:00,
2013-02-13 20:55:00,54.7,38.4,29.47,SSE,158,3.1,3.1,54,0.00,,---,1.24,VWS V14.01,2013-02-13 18:55:00,
2013-02-13 20:56:00,54.7,38.4,29.47,SSW,202,3.8,3.8,54,0.00,,---,1.24,VWS V14.01,2013-02-13 18:56:00,
2013-02-13 20:57:00,54.5,38.2,29.47,South,180,3.4,3.8,54,0.00,,---,1.24,VWS V14.01,2013-02-13 18:57:00,
2013-02-13 20:58:00,54.5,38.2,29.47,SSW,202,1.6,3.4,54,0.00,,---,1.24,VWS V14.01,2013-02-13 18:58:00,
2013-02-13 20:59:00,54.5,38.2,29.47,SSE,158,4.0,4.0,54,0.00,,---,1.24,VWS V14.01,2013-02-13 18:59:00,
2013-02-13 21:00:00,54.5,38.2,29.47,SE,135,6.7,6.7,54,0.00,,---,1.24,VWS V14.01,2013-02-13 19:00:00,
2013-02-13 21:01:00,54.5,38.2,29.47,South,180,4.0,6.7,54,0.00,,---,1.24,VWS V14.01,2013-02-13 19:01:00,
2013-02-13 21:02:00,54.5,38.2,29.47,South,180,2.2,4.0,54,0.00,,---,1.24,VWS V14.01,2013-02-13 19:02:00,
2013-02-13 21:03:00,54.5,38.2,29.47,SSE,158,3.6,3.6,54,0.00,,---,1.24,VWS V14.01,2013-02-13 19:03:00,
2013-02-13 21:04:00,54.5,38.2,29.47,SSE,158,0.9,3.6,54,0.00,,---,1.24,VWS V14.01,2013-02-13 19:04:00,
2013-02-13 21:05:00,54.5,38.2,29.47,SSE,158,2.5,2.5,54,0.00,,---,1.24,VWS V14.01,2013-02-13 19:05:00,
2013-02-13 21:06:00,54.5,38.2,29.47,SE,135,1.1,2.5,54,0.00,,---,1.24,VWS V14.01,2013-02-13 19:06:00,
2013-02-13 21:07:00,54.5,38.2,29.47,SSE,158,2.5,2.5,54,0.00,,---,1.24,VWS V14.01,2013-02-13 19:07:00,
2013-02-13 21:08:00,54.5,38.2,29.47,SSE,158,2.0,2.5,54,0.00,,---,1.24,VWS V14.01,2013-02-13 19:08:00,
2013-02-13 21:09:00,54.5,38.2,29.47,SE,135,3.1,3.1,54,0.00,,---,1.24,VWS V14.01,2013-02-13 19:09:00,
2013-02-13 21:10:00,54.5,38.2,29.47,South,180,2.0,3.1,54,0.00,,---,1.24,VWS V14.01,2013-02-13 19:10:00,
2013-02-13 21:11:00,54.5,38.2,29.47,East,90,1.6,2.0,54,0.00,,---,1.24,VWS V14.01,2013-02-13 19:11:00,
2013-02-13 21:12:00,54.5,38.2,29.47,SE,135,1.6,1.6,54,0.00,,---,1.24,VWS V14.01,2013-02-13 19:12:00,
2013-02-13 21:13:00,54.5,38.2,29.47,ESE,112,1.6,1.6,54,0.00,,---,1.24,VWS V14.01,2013-02-13 19:13:00,
2013-02-13 21:14:00,54.5,38.2,29.47,SSE,158,1.6,1.6,54,0.00,,---,1.24,VWS V14.01,2013-02-13 19:14:00,
2013-02-13 21:15:00,54.5,38.2,29.47,South,180,2.7,2.7,54,0.00,,---,1.24,VWS V14.01,2013-02-13 19:15:00,
2013-02-13 21:16:00,54.5,38.2,29.47,SSE,158,1.1,2.7,54,0.00,,---,1.24,VWS V14.01,2013-02-13 19:16:00,
2013-02-13 21:17:00,54.5,38.2,29.47,SSE,158,1.1,1.1,54,0.00,,---,1.24,VWS V14.01,2013-02-13 19:17:00,
2013-02-13 21:18:00,54.5,38.2,29.47,SSE,158,4.9,4.9,54,0.00,,---,1.24,VWS V14.01,2013-02-13 19:18:00,
2013-02-13 21:19:00,54.5,38.2,29.47,SSW,202,2.7,4.9,54,0.00,,---,1.24,VWS V14.01,2013-02-13 19:19:00,
2013-02-13 21:20:00,54.5,38.2,29.47,SSW,202,1.1,2.7,54,0.00,,---,1.24,VWS V14.01,2013-02-13 19:20:00,
2013-02-13 21:21:00,54.5,38.2,29.47,South,180,1.1,1.1,54,0.00,,---,1.24,VWS V14.01,2013-02-13 19:21:00,
2013-02-13 21:22:00,54.5,38.2,29.47,SE,135,1.6,1.6,54,0.00,,---,1.24,VWS V14.01,2013-02-13 19:22:00,
2013-02-13 21:23:00,54.5,38.2,29.47,SE,135,0.0,1.6,54,0.00,,---,1.24,VWS V14.01,2013-02-13 19:23:00,
2013-02-13 21:24:00,54.5,38.2,29.47,SE,135,0.0,0.0,54,0.00,,---,1.24,VWS V14.01,2013-02-13 19:24:00,
2013-02-13 21:25:00,54.5,38.2,29.47,South,180,1.6,1.6,54,0.00,,---,1.24,VWS V14.01,2013-02-13 19:25:00,
2013-02-13 21:26:00,54.5,38.2,29.47,SSE,158,2.7,2.7,54,0.00,,---,1.24,VWS V14.01,2013-02-13 19:26:00,
2013-02-13 21:27:00,54.5,38.2,29.47,SW,225,4.9,4.9,54,0.00,,---,1.24,VWS V14.01,2013-02-13 19:27:00,
2013-02-13 21:28:00,54.5,38.2,29.47,NNW,338,3.1,4.9,54,0.00,,---,1.24,VWS V14.01,2013-02-13 19:28:00,
2013-02-13 21:29:00,54.5,38.2,29.47,ENE,68,3.6,3.6,54,0.00,,---,1.24,VWS V14.01,2013-02-13 19:29:00,
2013-02-13 21:30:00,54.5,38.2,29.47,South,180,7.6,7.6,54,0.00,,---,1.24,VWS V14.01,2013-02-13 19:30:00,
2013-02-13 21:31:00,54.5,38.7,29.47,SE,135,5.4,7.6,55,0.00,,---,1.24,VWS V14.01,2013-02-13 19:31:00,
2013-02-13 21:32:00,54.7,38.8,29.47,SE,135,3.8,5.4,55,0.00,,---,1.24,VWS V14.01,2013-02-13 19:32:00,
2013-02-13 21:33:00,54.7,38.8,29.47,SSE,158,3.4,3.8,55,0.00,,---,1.24,VWS V14.01,2013-02-13 19:33:00,
2013-02-13 21:34:00,54.7,38.8,29.47,ESE,112,4.3,4.3,55,0.00,,---,1.24,VWS V14.01,2013-02-13 19:34:00,
2013-02-13 21:35:00,54.7,38.8,29.47,SE,135,4.3,4.3,55,0.00,,---,1.24,VWS V14.01,2013-02-13 19:35:00,
2013-02-13 21:36:00,54.7,38.8,29.47,SSE,158,4.7,4.7,55,0.00,,---,1.24,VWS V14.01,2013-02-13 19:36:00,
2013-02-13 21:37:00,54.7,38.8,29.47,SSW,202,7.8,7.8,55,0.00,,---,1.24,VWS V14.01,2013-02-13 19:37:00,
2013-02-13 21:46:00,54.5,38.2,29.47,SSW,202,6.0,6.0,54,0.00,,---,1.24,VWS V14.01,2013-02-13 19:46:00,
2013-02-13 21:47:00,54.5,38.2,29.47,SSW,202,6.0,6.0,54,0.00,,---,1.24,VWS V14.01,2013-02-13 19:47:00,
2013-02-13 21:52:00,54.3,38.0,29.47,South,180,4.9,5.4,54,0.00,,---,1.24,VWS V14.01,2013-02-13 19:52:00,
2013-02-13 21:57:00,54.3,38.0,29.47,South,180,5.4,5.4,54,0.00,,---,1.24,VWS V14.01,2013-02-13 19:57:00,
2013-02-13 22:02:00,54.1,37.9,29.47,SSE,158,2.5,2.9,54,0.00,,---,1.24,VWS V14.01,2013-02-13 20:02:00,
2013-02-13 23:14:00,53.8,39.8,29.47,SW,225,2.5,2.5,59,0.00,,---,1.24,VWS V14.01,2013-02-13 21:14:00,
2013-02-13 23:24:00,53.8,39.8,29.47,NE,45,2.0,2.0,59,0.00,,---,1.24,VWS V14.01,2013-02-13 21:24:00,
2013-02-13 23:25:00,54.0,40.0,29.47,SSE,158,3.1,3.1,59,0.00,,---,1.24,VWS V14.01,2013-02-13 21:25:00,
2013-02-13 23:26:00,54.0,40.0,29.47,SSW,202,2.0,3.1,59,0.00,,---,1.24,VWS V14.01,2013-02-13 21:26:00,
2013-02-13 23:27:00,54.0,40.0,29.47,SSE,158,3.1,3.1,59,0.00,,---,1.24,VWS V14.01,2013-02-13 21:27:00,
2013-02-13 23:28:00,54.1,40.1,29.47,ESE,112,2.5,3.1,59,0.00,,---,1.24,VWS V14.01,2013-02-13 21:28:00,
2013-02-13 23:29:00,54.1,40.1,29.47,SSE,158,4.9,4.9,59,0.00,,---,1.24,VWS V14.01,2013-02-13 21:29:00,
2013-02-13 23:30:00,54.1,40.1,29.47,SSE,158,2.2,4.9,59,0.00,,---,1.24,VWS V14.01,2013-02-13 21:30:00,
2013-02-13 23:31:00,54.1,39.7,29.47,SSE,158,6.5,6.5,58,0.00,,---,1.24,VWS V14.01,2013-02-13 21:31:00,
2013-02-13 23:32:00,54.1,38.8,29.47,SSE,158,5.4,6.5,56,0.00,,---,1.24,VWS V14.01,2013-02-13 21:32:00,
2013-02-13 23:33:00,54.3,38.5,29.47,SSE,158,4.0,5.4,55,0.00,,---,1.24,VWS V14.01,2013-02-13 21:33:00,
2013-02-13 23:34:00,54.3,38.5,29.47,WSW,248,2.0,4.0,55,0.00,,---,1.24,VWS V14.01,2013-02-13 21:34:00,
2013-02-13 23:35:00,54.3,38.5,29.47,SSW,202,1.6,2.0,55,0.00,,---,1.24,VWS V14.01,2013-02-13 21:35:00,
2013-02-13 23:36:00,54.3,38.5,29.47,SSW,202,3.1,3.1,55,0.00,,---,1.24,VWS V14.01,2013-02-13 21:36:00,
2013-02-13 23:37:00,54.3,38.5,29.47,SSE,158,3.8,3.8,55,0.00,,---,1.24,VWS V14.01,2013-02-13 21:37:00,
2013-02-13 23:38:00,54.3,38.0,29.47,SW,225,1.1,3.8,54,0.00,,---,1.24,VWS V14.01,2013-02-13 21:38:00,
2013-02-13 23:39:00,54.3,38.0,29.47,SSE,158,2.0,2.0,54,0.00,,---,1.24,VWS V14.01,2013-02-13 21:39:00,
2013-02-13 23:40:00,54.5,38.2,29.47,SSE,158,2.7,2.7,54,0.00,,---,1.24,VWS V14.01,2013-02-13 21:40:00,
2013-02-13 23:41:00,54.3,37.6,29.47,SSE,158,5.4,5.4,53,0.00,,---,1.24,VWS V14.01,2013-02-13 21:41:00,
2013-02-13 23:42:00,54.5,37.7,29.47,SSE,158,2.5,5.4,53,0.00,,---,1.24,VWS V14.01,2013-02-13 21:42:00,
2013-02-13 23:43:00,54.5,37.7,29.47,South,180,1.6,2.5,53,0.00,,---,1.24,VWS V14.01,2013-02-13 21:43:00,
2013-02-13 23:44:00,54.5,37.7,29.47,SSE,158,2.9,2.9,53,0.00,,---,1.24,VWS V14.01,2013-02-13 21:44:00,
2013-02-13 23:45:00,54.5,37.7,29.47,SSW,202,2.9,2.9,53,0.00,,---,1.24,VWS V14.01,2013-02-13 21:45:00,
2013-02-13 23:46:00,54.5,37.2,29.47,ESE,112,4.0,4.0,52,0.00,,---,1.24,VWS V14.01,2013-02-13 21:46:00,
2013-02-13 23:47:00,54.5,37.2,29.47,SSW,202,2.5,4.0,52,0.00,,---,1.24,VWS V14.01,2013-02-13 21:47:00,
2013-02-13 23:48:00,54.5,37.2,29.47,South,180,4.9,4.9,52,0.00,,---,1.24,VWS V14.01,2013-02-13 21:48:00,
2013-02-13 23:49:00,54.5,37.2,29.47,West,270,9.6,9.6,52,0.00,,---,1.24,VWS V14.01,2013-02-13 21:49:00,
2013-02-13 23:50:00,54.5,37.2,29.47,South,180,5.8,9.6,52,0.00,,---,1.24,VWS V14.01,2013-02-13 21:50:00,
2013-02-13 23:51:00,54.5,37.2,29.47,SSE,158,2.7,5.8,52,0.00,,---,1.24,VWS V14.01,2013-02-13 21:51:00,
2013-02-13 23:52:00,54.5,37.2,29.47,SSE,158,6.0,6.0,52,0.00,,---,1.24,VWS V14.01,2013-02-13 21:52:00,
2013-02-13 23:53:00,54.5,36.8,29.47,SSE,158,4.3,6.0,51,0.00,,---,1.24,VWS V14.01,2013-02-13 21:53:00,
2013-02-13 23:54:00,54.5,36.8,29.47,SE,135,2.0,4.3,51,0.00,,---,1.24,VWS V14.01,2013-02-13 21:54:00,
2013-02-13 23:55:00,54.5,36.8,29.47,ESE,112,2.2,2.2,51,0.00,,---,1.24,VWS V14.01,2013-02-13 21:55:00,
2013-02-13 23:56:00,54.5,36.8,29.47,SSE,158,3.4,3.4,51,0.00,,---,1.24,VWS V14.01,2013-02-13 21:56:00,
2013-02-13 23:57:00,54.5,36.8,29.47,ESE,112,3.8,3.8,51,0.00,,---,1.24,VWS V14.01,2013-02-13 21:57:00,
2013-02-13 23:58:00,54.5,36.8,29.47,SSW,202,4.0,4.0,51,0.00,,---,1.24,VWS V14.01,2013-02-13 21:58:00,
2013-02-13 23:59:00,54.5,36.8,29.47,SSE,158,3.6,4.0,51,0.00,,---,1.24,VWS V14.01,2013-02-13 21:59:00,